<?xml version="1.0" encoding="UTF-8" standalone="no" ?>
<gpx xmlns="http://www.topografix.com/GPX/1/1" xmlns:xsi="http://www.w3.org/2001/XMLSchema-instance" xsi:schemaLocation="http://www.topografix.com/GPX/1/1 http://www.topografix.com/GPX/1/1/gpx.xsd" version="1.1" creator="VisuGPX - https://www.visugpx.com">
  <metadata>
    <name>L'Aubépine</name>
    <desc><![CDATA[Boucle au départ de Saint Rome de Dolan : petite montée sur route tranquille (bergeries) et retour le long des falaises, avec multiples points de vue spectaculaires sur les gorges du Tarn.]]></desc>
  </metadata>
  <trk>
    <name><![CDATA[Tracé actuel: 20 MAI 2026 11:12]]></name>
    <extensions>
      <line xmlns="http://www.topografix.com/GPX/gpx_style/0/2">
        <color>0000FF</color>
        <width>4</width>
      </line>
    </extensions>
    <trkseg>
      <trkpt lat="44.27394" lon="3.21593">
        <ele>860.04</ele>
        <time>2026-05-20T09:12:58Z</time>
      </trkpt>
      <trkpt lat="44.27395" lon="3.2159">
        <ele>858.59</ele>
        <time>2026-05-20T09:13:16Z</time>
      </trkpt>
      <trkpt lat="44.27395" lon="3.2157">
        <ele>859.56</ele>
        <time>2026-05-20T09:13:32Z</time>
      </trkpt>
      <trkpt lat="44.27393" lon="3.21567">
        <ele>859.56</ele>
        <time>2026-05-20T09:13:36Z</time>
      </trkpt>
      <trkpt lat="44.2739" lon="3.21561">
        <ele>859.56</ele>
        <time>2026-05-20T09:13:42Z</time>
      </trkpt>
      <trkpt lat="44.27384" lon="3.21556">
        <ele>861</ele>
        <time>2026-05-20T09:13:48Z</time>
      </trkpt>
      <trkpt lat="44.27367" lon="3.21548">
        <ele>862.44</ele>
        <time>2026-05-20T09:14:07Z</time>
      </trkpt>
      <trkpt lat="44.27353" lon="3.21543">
        <ele>864.36</ele>
        <time>2026-05-20T09:14:21Z</time>
      </trkpt>
      <trkpt lat="44.27334" lon="3.21536">
        <ele>863.88</ele>
        <time>2026-05-20T09:14:41Z</time>
      </trkpt>
      <trkpt lat="44.27331" lon="3.21535">
        <ele>865.32</ele>
        <time>2026-05-20T09:14:44Z</time>
      </trkpt>
      <trkpt lat="44.27326" lon="3.21534">
        <ele>865.32</ele>
        <time>2026-05-20T09:14:48Z</time>
      </trkpt>
      <trkpt lat="44.27311" lon="3.21526">
        <ele>867.25</ele>
        <time>2026-05-20T09:15:05Z</time>
      </trkpt>
      <trkpt lat="44.27306" lon="3.21523">
        <ele>866.77</ele>
        <time>2026-05-20T09:15:10Z</time>
      </trkpt>
      <trkpt lat="44.27295" lon="3.21515">
        <ele>866.77</ele>
        <time>2026-05-20T09:15:22Z</time>
      </trkpt>
      <trkpt lat="44.27285" lon="3.21503">
        <ele>868.69</ele>
        <time>2026-05-20T09:15:39Z</time>
      </trkpt>
      <trkpt lat="44.27276" lon="3.21482">
        <ele>869.17</ele>
        <time>2026-05-20T09:15:55Z</time>
      </trkpt>
      <trkpt lat="44.27275" lon="3.21467">
        <ele>870.13</ele>
        <time>2026-05-20T09:16:07Z</time>
      </trkpt>
      <trkpt lat="44.27277" lon="3.21444">
        <ele>871.09</ele>
        <time>2026-05-20T09:16:24Z</time>
      </trkpt>
      <trkpt lat="44.27281" lon="3.2142">
        <ele>872.53</ele>
        <time>2026-05-20T09:16:42Z</time>
      </trkpt>
      <trkpt lat="44.27281" lon="3.21397">
        <ele>873.98</ele>
        <time>2026-05-20T09:16:58Z</time>
      </trkpt>
      <trkpt lat="44.27281" lon="3.2137">
        <ele>874.46</ele>
        <time>2026-05-20T09:17:17Z</time>
      </trkpt>
      <trkpt lat="44.2728" lon="3.21362">
        <ele>874.46</ele>
        <time>2026-05-20T09:17:23Z</time>
      </trkpt>
      <trkpt lat="44.27276" lon="3.21354">
        <ele>875.42</ele>
        <time>2026-05-20T09:17:29Z</time>
      </trkpt>
      <trkpt lat="44.27262" lon="3.21337">
        <ele>875.42</ele>
        <time>2026-05-20T09:17:48Z</time>
      </trkpt>
      <trkpt lat="44.27261" lon="3.21335">
        <ele>875.42</ele>
        <time>2026-05-20T09:17:50Z</time>
      </trkpt>
      <trkpt lat="44.2726" lon="3.21334">
        <ele>875.42</ele>
        <time>2026-05-20T09:17:51Z</time>
      </trkpt>
      <trkpt lat="44.27259" lon="3.21332">
        <ele>875.9</ele>
        <time>2026-05-20T09:17:52Z</time>
      </trkpt>
      <trkpt lat="44.27258" lon="3.21331">
        <ele>875.9</ele>
        <time>2026-05-20T09:17:53Z</time>
      </trkpt>
      <trkpt lat="44.27251" lon="3.21319">
        <ele>876.38</ele>
        <time>2026-05-20T09:18:04Z</time>
      </trkpt>
      <trkpt lat="44.2725" lon="3.21318">
        <ele>876.38</ele>
        <time>2026-05-20T09:18:05Z</time>
      </trkpt>
      <trkpt lat="44.27246" lon="3.21301">
        <ele>877.82</ele>
        <time>2026-05-20T09:18:21Z</time>
      </trkpt>
      <trkpt lat="44.27245" lon="3.213">
        <ele>877.82</ele>
        <time>2026-05-20T09:18:22Z</time>
      </trkpt>
      <trkpt lat="44.27242" lon="3.21287">
        <ele>878.78</ele>
        <time>2026-05-20T09:18:36Z</time>
      </trkpt>
      <trkpt lat="44.27243" lon="3.21284">
        <ele>877.82</ele>
        <time>2026-05-20T09:18:41Z</time>
      </trkpt>
      <trkpt lat="44.27243" lon="3.21283">
        <ele>880.22</ele>
        <time>2026-05-20T09:18:43Z</time>
      </trkpt>
      <trkpt lat="44.27244" lon="3.21277">
        <ele>880.71</ele>
        <time>2026-05-20T09:18:55Z</time>
      </trkpt>
      <trkpt lat="44.27246" lon="3.21271">
        <ele>882.63</ele>
        <time>2026-05-20T09:19:07Z</time>
      </trkpt>
      <trkpt lat="44.27249" lon="3.21265">
        <ele>883.11</ele>
        <time>2026-05-20T09:19:22Z</time>
      </trkpt>
      <trkpt lat="44.2725" lon="3.21263">
        <ele>884.55</ele>
        <time>2026-05-20T09:19:24Z</time>
      </trkpt>
      <trkpt lat="44.27254" lon="3.21255">
        <ele>885.03</ele>
        <time>2026-05-20T09:19:35Z</time>
      </trkpt>
      <trkpt lat="44.27254" lon="3.21247">
        <ele>885.03</ele>
        <time>2026-05-20T09:19:42Z</time>
      </trkpt>
      <trkpt lat="44.27254" lon="3.21239">
        <ele>885.99</ele>
        <time>2026-05-20T09:19:52Z</time>
      </trkpt>
      <trkpt lat="44.27257" lon="3.21233">
        <ele>886.95</ele>
        <time>2026-05-20T09:20:00Z</time>
      </trkpt>
      <trkpt lat="44.2726" lon="3.21226">
        <ele>886.95</ele>
        <time>2026-05-20T09:20:11Z</time>
      </trkpt>
      <trkpt lat="44.27261" lon="3.21224">
        <ele>881.19</ele>
        <time>2026-05-20T09:20:13Z</time>
      </trkpt>
      <trkpt lat="44.27261" lon="3.21223">
        <ele>887.91</ele>
        <time>2026-05-20T09:20:14Z</time>
      </trkpt>
      <trkpt lat="44.27262" lon="3.21222">
        <ele>891.28</ele>
        <time>2026-05-20T09:20:15Z</time>
      </trkpt>
      <trkpt lat="44.27262" lon="3.21221">
        <ele>888.88</ele>
        <time>2026-05-20T09:20:16Z</time>
      </trkpt>
      <trkpt lat="44.27269" lon="3.21213">
        <ele>888.88</ele>
        <time>2026-05-20T09:20:29Z</time>
      </trkpt>
      <trkpt lat="44.27274" lon="3.21209">
        <ele>890.32</ele>
        <time>2026-05-20T09:20:46Z</time>
      </trkpt>
      <trkpt lat="44.27279" lon="3.21202">
        <ele>889.36</ele>
        <time>2026-05-20T09:20:58Z</time>
      </trkpt>
      <trkpt lat="44.2728" lon="3.21201">
        <ele>892.24</ele>
        <time>2026-05-20T09:21:00Z</time>
      </trkpt>
      <trkpt lat="44.2728" lon="3.212">
        <ele>890.32</ele>
        <time>2026-05-20T09:21:01Z</time>
      </trkpt>
      <trkpt lat="44.27284" lon="3.21198">
        <ele>891.76</ele>
        <time>2026-05-20T09:21:06Z</time>
      </trkpt>
      <trkpt lat="44.27288" lon="3.21198">
        <ele>891.76</ele>
        <time>2026-05-20T09:21:10Z</time>
      </trkpt>
      <trkpt lat="44.27289" lon="3.21198">
        <ele>891.76</ele>
        <time>2026-05-20T09:21:11Z</time>
      </trkpt>
      <trkpt lat="44.27291" lon="3.21198">
        <ele>891.76</ele>
        <time>2026-05-20T09:21:12Z</time>
      </trkpt>
      <trkpt lat="44.27294" lon="3.21197">
        <ele>891.76</ele>
        <time>2026-05-20T09:21:20Z</time>
      </trkpt>
      <trkpt lat="44.27295" lon="3.21197">
        <ele>891.76</ele>
        <time>2026-05-20T09:21:21Z</time>
      </trkpt>
      <trkpt lat="44.27299" lon="3.21185">
        <ele>892.24</ele>
        <time>2026-05-20T09:21:34Z</time>
      </trkpt>
      <trkpt lat="44.273" lon="3.21182">
        <ele>885.51</ele>
        <time>2026-05-20T09:21:39Z</time>
      </trkpt>
      <trkpt lat="44.27301" lon="3.21181">
        <ele>896.57</ele>
        <time>2026-05-20T09:21:40Z</time>
      </trkpt>
      <trkpt lat="44.27301" lon="3.21181">
        <ele>893.68</ele>
        <time>2026-05-20T09:21:41Z</time>
      </trkpt>
      <trkpt lat="44.27302" lon="3.21179">
        <ele>892.24</ele>
        <time>2026-05-20T09:21:43Z</time>
      </trkpt>
      <trkpt lat="44.27303" lon="3.21176">
        <ele>888.4</ele>
        <time>2026-05-20T09:21:46Z</time>
      </trkpt>
      <trkpt lat="44.27303" lon="3.21175">
        <ele>895.61</ele>
        <time>2026-05-20T09:21:47Z</time>
      </trkpt>
      <trkpt lat="44.27304" lon="3.21174">
        <ele>893.68</ele>
        <time>2026-05-20T09:21:48Z</time>
      </trkpt>
      <trkpt lat="44.27304" lon="3.21173">
        <ele>891.76</ele>
        <time>2026-05-20T09:21:50Z</time>
      </trkpt>
      <trkpt lat="44.27304" lon="3.21171">
        <ele>894.16</ele>
        <time>2026-05-20T09:21:52Z</time>
      </trkpt>
      <trkpt lat="44.27303" lon="3.21167">
        <ele>894.16</ele>
        <time>2026-05-20T09:22:05Z</time>
      </trkpt>
      <trkpt lat="44.27303" lon="3.21167">
        <ele>893.2</ele>
        <time>2026-05-20T09:22:16Z</time>
      </trkpt>
      <trkpt lat="44.27304" lon="3.21166">
        <ele>893.2</ele>
        <time>2026-05-20T09:22:28Z</time>
      </trkpt>
      <trkpt lat="44.27304" lon="3.21166">
        <ele>894.64</ele>
        <time>2026-05-20T09:22:30Z</time>
      </trkpt>
      <trkpt lat="44.27306" lon="3.21166">
        <ele>880.22</ele>
        <time>2026-05-20T09:22:39Z</time>
      </trkpt>
      <trkpt lat="44.27306" lon="3.21166">
        <ele>896.57</ele>
        <time>2026-05-20T09:22:40Z</time>
      </trkpt>
      <trkpt lat="44.27306" lon="3.21166">
        <ele>885.51</ele>
        <time>2026-05-20T09:22:41Z</time>
      </trkpt>
      <trkpt lat="44.27307" lon="3.21166">
        <ele>906.66</ele>
        <time>2026-05-20T09:22:42Z</time>
      </trkpt>
      <trkpt lat="44.27307" lon="3.21167">
        <ele>898.49</ele>
        <time>2026-05-20T09:22:43Z</time>
      </trkpt>
      <trkpt lat="44.27307" lon="3.21167">
        <ele>895.12</ele>
        <time>2026-05-20T09:22:44Z</time>
      </trkpt>
      <trkpt lat="44.27308" lon="3.21167">
        <ele>891.76</ele>
        <time>2026-05-20T09:22:48Z</time>
      </trkpt>
      <trkpt lat="44.27308" lon="3.21167">
        <ele>893.2</ele>
        <time>2026-05-20T09:22:49Z</time>
      </trkpt>
      <trkpt lat="44.27308" lon="3.21167">
        <ele>894.64</ele>
        <time>2026-05-20T09:22:51Z</time>
      </trkpt>
      <trkpt lat="44.27307" lon="3.21161">
        <ele>894.64</ele>
        <time>2026-05-20T09:23:12Z</time>
      </trkpt>
      <trkpt lat="44.2731" lon="3.21145">
        <ele>895.61</ele>
        <time>2026-05-20T09:23:28Z</time>
      </trkpt>
      <trkpt lat="44.2731" lon="3.21137">
        <ele>893.2</ele>
        <time>2026-05-20T09:23:40Z</time>
      </trkpt>
      <trkpt lat="44.2731" lon="3.21137">
        <ele>898.01</ele>
        <time>2026-05-20T09:23:41Z</time>
      </trkpt>
      <trkpt lat="44.2731" lon="3.21137">
        <ele>897.05</ele>
        <time>2026-05-20T09:23:42Z</time>
      </trkpt>
      <trkpt lat="44.27309" lon="3.21131">
        <ele>892.72</ele>
        <time>2026-05-20T09:23:57Z</time>
      </trkpt>
      <trkpt lat="44.27309" lon="3.2113">
        <ele>896.57</ele>
        <time>2026-05-20T09:23:58Z</time>
      </trkpt>
      <trkpt lat="44.27309" lon="3.21129">
        <ele>896.09</ele>
        <time>2026-05-20T09:23:59Z</time>
      </trkpt>
      <trkpt lat="44.27315" lon="3.21117">
        <ele>896.57</ele>
        <time>2026-05-20T09:24:11Z</time>
      </trkpt>
      <trkpt lat="44.27321" lon="3.21106">
        <ele>893.2</ele>
        <time>2026-05-20T09:24:24Z</time>
      </trkpt>
      <trkpt lat="44.27321" lon="3.21104">
        <ele>899.45</ele>
        <time>2026-05-20T09:24:25Z</time>
      </trkpt>
      <trkpt lat="44.27322" lon="3.21103">
        <ele>899.45</ele>
        <time>2026-05-20T09:24:26Z</time>
      </trkpt>
      <trkpt lat="44.27322" lon="3.211">
        <ele>897.05</ele>
        <time>2026-05-20T09:24:28Z</time>
      </trkpt>
      <trkpt lat="44.27323" lon="3.21097">
        <ele>897.05</ele>
        <time>2026-05-20T09:24:30Z</time>
      </trkpt>
      <trkpt lat="44.27322" lon="3.21092">
        <ele>897.05</ele>
        <time>2026-05-20T09:24:44Z</time>
      </trkpt>
      <trkpt lat="44.27322" lon="3.21092">
        <ele>899.45</ele>
        <time>2026-05-20T09:24:49Z</time>
      </trkpt>
      <trkpt lat="44.27322" lon="3.21092">
        <ele>897.53</ele>
        <time>2026-05-20T09:24:52Z</time>
      </trkpt>
      <trkpt lat="44.27326" lon="3.21082">
        <ele>897.53</ele>
        <time>2026-05-20T09:25:06Z</time>
      </trkpt>
      <trkpt lat="44.27326" lon="3.21075">
        <ele>900.41</ele>
        <time>2026-05-20T09:25:14Z</time>
      </trkpt>
      <trkpt lat="44.27326" lon="3.21059">
        <ele>900.41</ele>
        <time>2026-05-20T09:25:29Z</time>
      </trkpt>
      <trkpt lat="44.27326" lon="3.21049">
        <ele>900.41</ele>
        <time>2026-05-20T09:25:37Z</time>
      </trkpt>
      <trkpt lat="44.27325" lon="3.21047">
        <ele>900.89</ele>
        <time>2026-05-20T09:25:38Z</time>
      </trkpt>
      <trkpt lat="44.27325" lon="3.21045">
        <ele>901.37</ele>
        <time>2026-05-20T09:25:39Z</time>
      </trkpt>
      <trkpt lat="44.27324" lon="3.21044">
        <ele>900.89</ele>
        <time>2026-05-20T09:25:40Z</time>
      </trkpt>
      <trkpt lat="44.27318" lon="3.21026">
        <ele>900.89</ele>
        <time>2026-05-20T09:25:55Z</time>
      </trkpt>
      <trkpt lat="44.27317" lon="3.21023">
        <ele>900.89</ele>
        <time>2026-05-20T09:25:57Z</time>
      </trkpt>
      <trkpt lat="44.27314" lon="3.21017">
        <ele>898.97</ele>
        <time>2026-05-20T09:26:02Z</time>
      </trkpt>
      <trkpt lat="44.27314" lon="3.21016">
        <ele>903.78</ele>
        <time>2026-05-20T09:26:03Z</time>
      </trkpt>
      <trkpt lat="44.27313" lon="3.21015">
        <ele>903.78</ele>
        <time>2026-05-20T09:26:04Z</time>
      </trkpt>
      <trkpt lat="44.27311" lon="3.21013">
        <ele>901.85</ele>
        <time>2026-05-20T09:26:06Z</time>
      </trkpt>
      <trkpt lat="44.27309" lon="3.2101">
        <ele>902.82</ele>
        <time>2026-05-20T09:26:09Z</time>
      </trkpt>
      <trkpt lat="44.27305" lon="3.21006">
        <ele>901.85</ele>
        <time>2026-05-20T09:26:13Z</time>
      </trkpt>
      <trkpt lat="44.27282" lon="3.20983">
        <ele>899.45</ele>
        <time>2026-05-20T09:26:36Z</time>
      </trkpt>
      <trkpt lat="44.27259" lon="3.20967">
        <ele>898.01</ele>
        <time>2026-05-20T09:26:59Z</time>
      </trkpt>
      <trkpt lat="44.27253" lon="3.20962">
        <ele>898.49</ele>
        <time>2026-05-20T09:27:05Z</time>
      </trkpt>
      <trkpt lat="44.27251" lon="3.20961">
        <ele>897.05</ele>
        <time>2026-05-20T09:27:07Z</time>
      </trkpt>
      <trkpt lat="44.2723" lon="3.20943">
        <ele>895.61</ele>
        <time>2026-05-20T09:27:29Z</time>
      </trkpt>
      <trkpt lat="44.27207" lon="3.20926">
        <ele>894.64</ele>
        <time>2026-05-20T09:27:52Z</time>
      </trkpt>
      <trkpt lat="44.27194" lon="3.20921">
        <ele>892.72</ele>
        <time>2026-05-20T09:28:03Z</time>
      </trkpt>
      <trkpt lat="44.27194" lon="3.20921">
        <ele>897.05</ele>
        <time>2026-05-20T09:28:05Z</time>
      </trkpt>
      <trkpt lat="44.27193" lon="3.20921">
        <ele>889.84</ele>
        <time>2026-05-20T09:28:06Z</time>
      </trkpt>
      <trkpt lat="44.27192" lon="3.20921">
        <ele>898.49</ele>
        <time>2026-05-20T09:28:07Z</time>
      </trkpt>
      <trkpt lat="44.2719" lon="3.2092">
        <ele>893.68</ele>
        <time>2026-05-20T09:28:09Z</time>
      </trkpt>
      <trkpt lat="44.27187" lon="3.20919">
        <ele>893.2</ele>
        <time>2026-05-20T09:28:11Z</time>
      </trkpt>
      <trkpt lat="44.27182" lon="3.20918">
        <ele>886.47</ele>
        <time>2026-05-20T09:28:16Z</time>
      </trkpt>
      <trkpt lat="44.27181" lon="3.20918">
        <ele>896.09</ele>
        <time>2026-05-20T09:28:17Z</time>
      </trkpt>
      <trkpt lat="44.27181" lon="3.20918">
        <ele>894.16</ele>
        <time>2026-05-20T09:28:18Z</time>
      </trkpt>
      <trkpt lat="44.27159" lon="3.20909">
        <ele>892.24</ele>
        <time>2026-05-20T09:28:37Z</time>
      </trkpt>
      <trkpt lat="44.27137" lon="3.20903">
        <ele>890.8</ele>
        <time>2026-05-20T09:28:56Z</time>
      </trkpt>
      <trkpt lat="44.27109" lon="3.20894">
        <ele>889.84</ele>
        <time>2026-05-20T09:29:21Z</time>
      </trkpt>
      <trkpt lat="44.27084" lon="3.20885">
        <ele>887.91</ele>
        <time>2026-05-20T09:29:44Z</time>
      </trkpt>
      <trkpt lat="44.27071" lon="3.20878">
        <ele>887.91</ele>
        <time>2026-05-20T09:29:56Z</time>
      </trkpt>
      <trkpt lat="44.27069" lon="3.20877">
        <ele>886.47</ele>
        <time>2026-05-20T09:29:58Z</time>
      </trkpt>
      <trkpt lat="44.27045" lon="3.20865">
        <ele>885.51</ele>
        <time>2026-05-20T09:30:21Z</time>
      </trkpt>
      <trkpt lat="44.27022" lon="3.20853">
        <ele>884.07</ele>
        <time>2026-05-20T09:30:43Z</time>
      </trkpt>
      <trkpt lat="44.27" lon="3.20839">
        <ele>882.63</ele>
        <time>2026-05-20T09:31:04Z</time>
      </trkpt>
      <trkpt lat="44.26983" lon="3.2082">
        <ele>881.19</ele>
        <time>2026-05-20T09:31:26Z</time>
      </trkpt>
      <trkpt lat="44.26964" lon="3.20799">
        <ele>879.74</ele>
        <time>2026-05-20T09:31:48Z</time>
      </trkpt>
      <trkpt lat="44.26962" lon="3.20796">
        <ele>878.3</ele>
        <time>2026-05-20T09:31:56Z</time>
      </trkpt>
      <trkpt lat="44.2696" lon="3.20795">
        <ele>880.22</ele>
        <time>2026-05-20T09:32:00Z</time>
      </trkpt>
      <trkpt lat="44.26958" lon="3.20794">
        <ele>874.94</ele>
        <time>2026-05-20T09:32:02Z</time>
      </trkpt>
      <trkpt lat="44.26957" lon="3.20793">
        <ele>879.74</ele>
        <time>2026-05-20T09:32:03Z</time>
      </trkpt>
      <trkpt lat="44.26955" lon="3.20792">
        <ele>873.01</ele>
        <time>2026-05-20T09:32:05Z</time>
      </trkpt>
      <trkpt lat="44.26954" lon="3.20791">
        <ele>885.51</ele>
        <time>2026-05-20T09:32:06Z</time>
      </trkpt>
      <trkpt lat="44.26953" lon="3.2079">
        <ele>880.22</ele>
        <time>2026-05-20T09:32:07Z</time>
      </trkpt>
      <trkpt lat="44.26951" lon="3.2079">
        <ele>879.74</ele>
        <time>2026-05-20T09:32:09Z</time>
      </trkpt>
      <trkpt lat="44.26946" lon="3.20786">
        <ele>879.26</ele>
        <time>2026-05-20T09:32:23Z</time>
      </trkpt>
      <trkpt lat="44.26943" lon="3.20783">
        <ele>876.86</ele>
        <time>2026-05-20T09:32:27Z</time>
      </trkpt>
      <trkpt lat="44.26942" lon="3.20782">
        <ele>878.78</ele>
        <time>2026-05-20T09:32:29Z</time>
      </trkpt>
      <trkpt lat="44.26924" lon="3.20769">
        <ele>876.86</ele>
        <time>2026-05-20T09:32:50Z</time>
      </trkpt>
      <trkpt lat="44.26906" lon="3.20756">
        <ele>875.9</ele>
        <time>2026-05-20T09:33:09Z</time>
      </trkpt>
      <trkpt lat="44.26884" lon="3.20738">
        <ele>874.94</ele>
        <time>2026-05-20T09:33:33Z</time>
      </trkpt>
      <trkpt lat="44.26875" lon="3.20728">
        <ele>873.98</ele>
        <time>2026-05-20T09:33:44Z</time>
      </trkpt>
      <trkpt lat="44.26865" lon="3.20701">
        <ele>873.01</ele>
        <time>2026-05-20T09:34:03Z</time>
      </trkpt>
      <trkpt lat="44.26859" lon="3.20669">
        <ele>871.09</ele>
        <time>2026-05-20T09:34:24Z</time>
      </trkpt>
      <trkpt lat="44.26859" lon="3.20664">
        <ele>873.01</ele>
        <time>2026-05-20T09:34:27Z</time>
      </trkpt>
      <trkpt lat="44.26859" lon="3.20658">
        <ele>871.57</ele>
        <time>2026-05-20T09:34:31Z</time>
      </trkpt>
      <trkpt lat="44.2686" lon="3.20649">
        <ele>871.57</ele>
        <time>2026-05-20T09:34:37Z</time>
      </trkpt>
      <trkpt lat="44.2687" lon="3.2062">
        <ele>871.09</ele>
        <time>2026-05-20T09:34:57Z</time>
      </trkpt>
      <trkpt lat="44.26879" lon="3.20589">
        <ele>870.61</ele>
        <time>2026-05-20T09:35:17Z</time>
      </trkpt>
      <trkpt lat="44.26878" lon="3.20572">
        <ele>870.13</ele>
        <time>2026-05-20T09:35:29Z</time>
      </trkpt>
      <trkpt lat="44.26875" lon="3.20539">
        <ele>871.09</ele>
        <time>2026-05-20T09:35:50Z</time>
      </trkpt>
      <trkpt lat="44.26866" lon="3.20501">
        <ele>870.61</ele>
        <time>2026-05-20T09:36:14Z</time>
      </trkpt>
      <trkpt lat="44.2686" lon="3.2047">
        <ele>870.61</ele>
        <time>2026-05-20T09:36:35Z</time>
      </trkpt>
      <trkpt lat="44.26856" lon="3.20447">
        <ele>872.05</ele>
        <time>2026-05-20T09:36:55Z</time>
      </trkpt>
      <trkpt lat="44.26855" lon="3.20435">
        <ele>872.05</ele>
        <time>2026-05-20T09:37:10Z</time>
      </trkpt>
      <trkpt lat="44.26852" lon="3.20399">
        <ele>873.01</ele>
        <time>2026-05-20T09:37:32Z</time>
      </trkpt>
      <trkpt lat="44.26843" lon="3.20364">
        <ele>873.98</ele>
        <time>2026-05-20T09:37:54Z</time>
      </trkpt>
      <trkpt lat="44.26828" lon="3.20339">
        <ele>874.46</ele>
        <time>2026-05-20T09:38:15Z</time>
      </trkpt>
      <trkpt lat="44.2682" lon="3.2033">
        <ele>875.9</ele>
        <time>2026-05-20T09:38:25Z</time>
      </trkpt>
      <trkpt lat="44.26795" lon="3.20318">
        <ele>875.9</ele>
        <time>2026-05-20T09:38:47Z</time>
      </trkpt>
      <trkpt lat="44.26775" lon="3.20312">
        <ele>876.86</ele>
        <time>2026-05-20T09:39:06Z</time>
      </trkpt>
      <trkpt lat="44.26774" lon="3.20312">
        <ele>873.98</ele>
        <time>2026-05-20T09:39:07Z</time>
      </trkpt>
      <trkpt lat="44.26755" lon="3.20313">
        <ele>876.38</ele>
        <time>2026-05-20T09:39:25Z</time>
      </trkpt>
      <trkpt lat="44.26734" lon="3.20318">
        <ele>877.34</ele>
        <time>2026-05-20T09:39:42Z</time>
      </trkpt>
      <trkpt lat="44.26726" lon="3.2032">
        <ele>878.78</ele>
        <time>2026-05-20T09:39:49Z</time>
      </trkpt>
      <trkpt lat="44.26717" lon="3.20321">
        <ele>875.42</ele>
        <time>2026-05-20T09:39:58Z</time>
      </trkpt>
      <trkpt lat="44.26716" lon="3.20321">
        <ele>879.74</ele>
        <time>2026-05-20T09:39:59Z</time>
      </trkpt>
      <trkpt lat="44.26697" lon="3.20322">
        <ele>877.82</ele>
        <time>2026-05-20T09:40:15Z</time>
      </trkpt>
      <trkpt lat="44.26681" lon="3.20323">
        <ele>879.26</ele>
        <time>2026-05-20T09:40:27Z</time>
      </trkpt>
      <trkpt lat="44.26664" lon="3.20324">
        <ele>878.78</ele>
        <time>2026-05-20T09:40:42Z</time>
      </trkpt>
      <trkpt lat="44.2665" lon="3.20322">
        <ele>880.22</ele>
        <time>2026-05-20T09:40:55Z</time>
      </trkpt>
      <trkpt lat="44.2663" lon="3.20325">
        <ele>879.74</ele>
        <time>2026-05-20T09:41:12Z</time>
      </trkpt>
      <trkpt lat="44.26612" lon="3.2033">
        <ele>880.71</ele>
        <time>2026-05-20T09:41:28Z</time>
      </trkpt>
      <trkpt lat="44.26594" lon="3.20339">
        <ele>880.71</ele>
        <time>2026-05-20T09:41:42Z</time>
      </trkpt>
      <trkpt lat="44.26585" lon="3.20342">
        <ele>880.71</ele>
        <time>2026-05-20T09:41:52Z</time>
      </trkpt>
      <trkpt lat="44.26563" lon="3.20356">
        <ele>880.71</ele>
        <time>2026-05-20T09:42:11Z</time>
      </trkpt>
      <trkpt lat="44.26551" lon="3.20363">
        <ele>879.74</ele>
        <time>2026-05-20T09:42:24Z</time>
      </trkpt>
      <trkpt lat="44.26549" lon="3.20363">
        <ele>879.74</ele>
        <time>2026-05-20T09:42:25Z</time>
      </trkpt>
      <trkpt lat="44.26548" lon="3.20364">
        <ele>879.74</ele>
        <time>2026-05-20T09:42:26Z</time>
      </trkpt>
      <trkpt lat="44.26547" lon="3.20364">
        <ele>879.74</ele>
        <time>2026-05-20T09:42:27Z</time>
      </trkpt>
      <trkpt lat="44.26546" lon="3.20365">
        <ele>879.74</ele>
        <time>2026-05-20T09:42:28Z</time>
      </trkpt>
      <trkpt lat="44.2653" lon="3.20368">
        <ele>875.42</ele>
        <time>2026-05-20T09:42:45Z</time>
      </trkpt>
      <trkpt lat="44.26531" lon="3.20368">
        <ele>879.26</ele>
        <time>2026-05-20T09:42:46Z</time>
      </trkpt>
      <trkpt lat="44.26529" lon="3.2037">
        <ele>882.15</ele>
        <time>2026-05-20T09:43:00Z</time>
      </trkpt>
      <trkpt lat="44.26528" lon="3.20371">
        <ele>879.26</ele>
        <time>2026-05-20T09:43:02Z</time>
      </trkpt>
      <trkpt lat="44.2652" lon="3.20371">
        <ele>879.26</ele>
        <time>2026-05-20T09:43:16Z</time>
      </trkpt>
      <trkpt lat="44.26518" lon="3.20372">
        <ele>879.26</ele>
        <time>2026-05-20T09:43:39Z</time>
      </trkpt>
      <trkpt lat="44.2652" lon="3.2037">
        <ele>878.78</ele>
        <time>2026-05-20T09:44:07Z</time>
      </trkpt>
      <trkpt lat="44.2652" lon="3.2037">
        <ele>880.71</ele>
        <time>2026-05-20T09:44:12Z</time>
      </trkpt>
      <trkpt lat="44.2652" lon="3.20371">
        <ele>879.26</ele>
        <time>2026-05-20T09:44:15Z</time>
      </trkpt>
      <trkpt lat="44.26516" lon="3.20371">
        <ele>878.78</ele>
        <time>2026-05-20T09:44:35Z</time>
      </trkpt>
      <trkpt lat="44.26517" lon="3.20374">
        <ele>878.78</ele>
        <time>2026-05-20T09:45:06Z</time>
      </trkpt>
      <trkpt lat="44.26515" lon="3.20374">
        <ele>879.26</ele>
        <time>2026-05-20T09:45:34Z</time>
      </trkpt>
      <trkpt lat="44.26498" lon="3.20375">
        <ele>879.26</ele>
        <time>2026-05-20T09:45:49Z</time>
      </trkpt>
      <trkpt lat="44.26491" lon="3.20376">
        <ele>879.26</ele>
        <time>2026-05-20T09:46:05Z</time>
      </trkpt>
      <trkpt lat="44.26488" lon="3.20373">
        <ele>879.26</ele>
        <time>2026-05-20T09:46:21Z</time>
      </trkpt>
      <trkpt lat="44.2648" lon="3.20375">
        <ele>879.26</ele>
        <time>2026-05-20T09:46:36Z</time>
      </trkpt>
      <trkpt lat="44.26477" lon="3.20379">
        <ele>880.71</ele>
        <time>2026-05-20T09:46:48Z</time>
      </trkpt>
      <trkpt lat="44.26473" lon="3.20377">
        <ele>881.67</ele>
        <time>2026-05-20T09:46:58Z</time>
      </trkpt>
      <trkpt lat="44.26472" lon="3.20375">
        <ele>881.67</ele>
        <time>2026-05-20T09:46:59Z</time>
      </trkpt>
      <trkpt lat="44.2646" lon="3.20376">
        <ele>881.67</ele>
        <time>2026-05-20T09:47:14Z</time>
      </trkpt>
      <trkpt lat="44.26456" lon="3.20377">
        <ele>881.67</ele>
        <time>2026-05-20T09:47:19Z</time>
      </trkpt>
      <trkpt lat="44.26451" lon="3.20379">
        <ele>881.67</ele>
        <time>2026-05-20T09:47:25Z</time>
      </trkpt>
      <trkpt lat="44.26435" lon="3.20379">
        <ele>880.22</ele>
        <time>2026-05-20T09:47:39Z</time>
      </trkpt>
      <trkpt lat="44.26434" lon="3.20378">
        <ele>881.67</ele>
        <time>2026-05-20T09:47:41Z</time>
      </trkpt>
      <trkpt lat="44.26419" lon="3.20379">
        <ele>880.71</ele>
        <time>2026-05-20T09:47:57Z</time>
      </trkpt>
      <trkpt lat="44.26404" lon="3.20378">
        <ele>881.67</ele>
        <time>2026-05-20T09:48:12Z</time>
      </trkpt>
      <trkpt lat="44.2639" lon="3.20375">
        <ele>881.19</ele>
        <time>2026-05-20T09:48:26Z</time>
      </trkpt>
      <trkpt lat="44.26373" lon="3.20373">
        <ele>879.26</ele>
        <time>2026-05-20T09:48:43Z</time>
      </trkpt>
      <trkpt lat="44.2637" lon="3.20373">
        <ele>879.26</ele>
        <time>2026-05-20T09:48:46Z</time>
      </trkpt>
      <trkpt lat="44.26369" lon="3.20374">
        <ele>879.74</ele>
        <time>2026-05-20T09:48:47Z</time>
      </trkpt>
      <trkpt lat="44.26368" lon="3.20373">
        <ele>879.74</ele>
        <time>2026-05-20T09:48:48Z</time>
      </trkpt>
      <trkpt lat="44.26354" lon="3.20369">
        <ele>879.26</ele>
        <time>2026-05-20T09:49:03Z</time>
      </trkpt>
      <trkpt lat="44.26347" lon="3.20369">
        <ele>879.74</ele>
        <time>2026-05-20T09:49:08Z</time>
      </trkpt>
      <trkpt lat="44.2634" lon="3.20368">
        <ele>878.78</ele>
        <time>2026-05-20T09:49:15Z</time>
      </trkpt>
      <trkpt lat="44.26332" lon="3.20366">
        <ele>878.3</ele>
        <time>2026-05-20T09:49:23Z</time>
      </trkpt>
      <trkpt lat="44.26331" lon="3.20366">
        <ele>878.3</ele>
        <time>2026-05-20T09:49:25Z</time>
      </trkpt>
      <trkpt lat="44.26322" lon="3.20365">
        <ele>871.57</ele>
        <time>2026-05-20T09:49:34Z</time>
      </trkpt>
      <trkpt lat="44.26321" lon="3.20365">
        <ele>874.94</ele>
        <time>2026-05-20T09:49:35Z</time>
      </trkpt>
      <trkpt lat="44.2632" lon="3.20365">
        <ele>879.74</ele>
        <time>2026-05-20T09:49:36Z</time>
      </trkpt>
      <trkpt lat="44.26318" lon="3.20365">
        <ele>883.11</ele>
        <time>2026-05-20T09:49:38Z</time>
      </trkpt>
      <trkpt lat="44.26317" lon="3.20365">
        <ele>878.3</ele>
        <time>2026-05-20T09:49:40Z</time>
      </trkpt>
      <trkpt lat="44.26316" lon="3.20365">
        <ele>878.3</ele>
        <time>2026-05-20T09:49:41Z</time>
      </trkpt>
      <trkpt lat="44.26313" lon="3.20365">
        <ele>878.3</ele>
        <time>2026-05-20T09:49:45Z</time>
      </trkpt>
      <trkpt lat="44.26312" lon="3.20365">
        <ele>878.3</ele>
        <time>2026-05-20T09:49:46Z</time>
      </trkpt>
      <trkpt lat="44.263" lon="3.20365">
        <ele>878.78</ele>
        <time>2026-05-20T09:49:59Z</time>
      </trkpt>
      <trkpt lat="44.26284" lon="3.20366">
        <ele>879.26</ele>
        <time>2026-05-20T09:50:14Z</time>
      </trkpt>
      <trkpt lat="44.26281" lon="3.20367">
        <ele>877.82</ele>
        <time>2026-05-20T09:50:16Z</time>
      </trkpt>
      <trkpt lat="44.26274" lon="3.20369">
        <ele>880.22</ele>
        <time>2026-05-20T09:50:23Z</time>
      </trkpt>
      <trkpt lat="44.26271" lon="3.2037">
        <ele>878.3</ele>
        <time>2026-05-20T09:50:25Z</time>
      </trkpt>
      <trkpt lat="44.26257" lon="3.20372">
        <ele>878.3</ele>
        <time>2026-05-20T09:50:39Z</time>
      </trkpt>
      <trkpt lat="44.26244" lon="3.20375">
        <ele>877.34</ele>
        <time>2026-05-20T09:50:53Z</time>
      </trkpt>
      <trkpt lat="44.26241" lon="3.20375">
        <ele>880.71</ele>
        <time>2026-05-20T09:50:55Z</time>
      </trkpt>
      <trkpt lat="44.26239" lon="3.20375">
        <ele>878.3</ele>
        <time>2026-05-20T09:50:57Z</time>
      </trkpt>
      <trkpt lat="44.26236" lon="3.20375">
        <ele>878.3</ele>
        <time>2026-05-20T09:51:01Z</time>
      </trkpt>
      <trkpt lat="44.26234" lon="3.20375">
        <ele>878.3</ele>
        <time>2026-05-20T09:51:02Z</time>
      </trkpt>
      <trkpt lat="44.26233" lon="3.20375">
        <ele>879.74</ele>
        <time>2026-05-20T09:51:03Z</time>
      </trkpt>
      <trkpt lat="44.26214" lon="3.20374">
        <ele>879.74</ele>
        <time>2026-05-20T09:51:19Z</time>
      </trkpt>
      <trkpt lat="44.26207" lon="3.20371">
        <ele>877.82</ele>
        <time>2026-05-20T09:51:27Z</time>
      </trkpt>
      <trkpt lat="44.26196" lon="3.2037">
        <ele>877.82</ele>
        <time>2026-05-20T09:51:36Z</time>
      </trkpt>
      <trkpt lat="44.26181" lon="3.20364">
        <ele>879.26</ele>
        <time>2026-05-20T09:51:51Z</time>
      </trkpt>
      <trkpt lat="44.26178" lon="3.20366">
        <ele>877.82</ele>
        <time>2026-05-20T09:51:54Z</time>
      </trkpt>
      <trkpt lat="44.26172" lon="3.20375">
        <ele>878.78</ele>
        <time>2026-05-20T09:52:06Z</time>
      </trkpt>
      <trkpt lat="44.2617" lon="3.20383">
        <ele>878.78</ele>
        <time>2026-05-20T09:52:14Z</time>
      </trkpt>
      <trkpt lat="44.26169" lon="3.20389">
        <ele>874.94</ele>
        <time>2026-05-20T09:52:19Z</time>
      </trkpt>
      <trkpt lat="44.26169" lon="3.2039">
        <ele>881.19</ele>
        <time>2026-05-20T09:52:20Z</time>
      </trkpt>
      <trkpt lat="44.26168" lon="3.20391">
        <ele>881.19</ele>
        <time>2026-05-20T09:52:21Z</time>
      </trkpt>
      <trkpt lat="44.26166" lon="3.20397">
        <ele>875.9</ele>
        <time>2026-05-20T09:52:27Z</time>
      </trkpt>
      <trkpt lat="44.26166" lon="3.20399">
        <ele>882.15</ele>
        <time>2026-05-20T09:52:28Z</time>
      </trkpt>
      <trkpt lat="44.26166" lon="3.20401">
        <ele>879.26</ele>
        <time>2026-05-20T09:52:30Z</time>
      </trkpt>
      <trkpt lat="44.26165" lon="3.20402">
        <ele>879.26</ele>
        <time>2026-05-20T09:52:31Z</time>
      </trkpt>
      <trkpt lat="44.26165" lon="3.20404">
        <ele>881.19</ele>
        <time>2026-05-20T09:52:33Z</time>
      </trkpt>
      <trkpt lat="44.26164" lon="3.20405">
        <ele>878.78</ele>
        <time>2026-05-20T09:52:34Z</time>
      </trkpt>
      <trkpt lat="44.26162" lon="3.20413">
        <ele>882.15</ele>
        <time>2026-05-20T09:52:42Z</time>
      </trkpt>
      <trkpt lat="44.26158" lon="3.20427">
        <ele>881.67</ele>
        <time>2026-05-20T09:52:54Z</time>
      </trkpt>
      <trkpt lat="44.26155" lon="3.20438">
        <ele>882.63</ele>
        <time>2026-05-20T09:53:03Z</time>
      </trkpt>
      <trkpt lat="44.26154" lon="3.20443">
        <ele>883.11</ele>
        <time>2026-05-20T09:53:06Z</time>
      </trkpt>
      <trkpt lat="44.26153" lon="3.20445">
        <ele>883.11</ele>
        <time>2026-05-20T09:53:07Z</time>
      </trkpt>
      <trkpt lat="44.26153" lon="3.20446">
        <ele>883.11</ele>
        <time>2026-05-20T09:53:08Z</time>
      </trkpt>
      <trkpt lat="44.26152" lon="3.20451">
        <ele>883.11</ele>
        <time>2026-05-20T09:53:13Z</time>
      </trkpt>
      <trkpt lat="44.2615" lon="3.20462">
        <ele>883.59</ele>
        <time>2026-05-20T09:53:23Z</time>
      </trkpt>
      <trkpt lat="44.26144" lon="3.20479">
        <ele>885.03</ele>
        <time>2026-05-20T09:53:37Z</time>
      </trkpt>
      <trkpt lat="44.26141" lon="3.20488">
        <ele>884.07</ele>
        <time>2026-05-20T09:53:44Z</time>
      </trkpt>
      <trkpt lat="44.26142" lon="3.20491">
        <ele>886.95</ele>
        <time>2026-05-20T09:53:47Z</time>
      </trkpt>
      <trkpt lat="44.26142" lon="3.20491">
        <ele>885.51</ele>
        <time>2026-05-20T09:53:49Z</time>
      </trkpt>
      <trkpt lat="44.26143" lon="3.20493">
        <ele>885.51</ele>
        <time>2026-05-20T09:53:58Z</time>
      </trkpt>
      <trkpt lat="44.26142" lon="3.20497">
        <ele>885.99</ele>
        <time>2026-05-20T09:54:18Z</time>
      </trkpt>
      <trkpt lat="44.26141" lon="3.20499">
        <ele>882.63</ele>
        <time>2026-05-20T09:54:20Z</time>
      </trkpt>
      <trkpt lat="44.26141" lon="3.20501">
        <ele>887.91</ele>
        <time>2026-05-20T09:54:22Z</time>
      </trkpt>
      <trkpt lat="44.26141" lon="3.20502">
        <ele>885.99</ele>
        <time>2026-05-20T09:54:23Z</time>
      </trkpt>
      <trkpt lat="44.26141" lon="3.20504">
        <ele>885.99</ele>
        <time>2026-05-20T09:54:24Z</time>
      </trkpt>
      <trkpt lat="44.26139" lon="3.2051">
        <ele>886.95</ele>
        <time>2026-05-20T09:54:29Z</time>
      </trkpt>
      <trkpt lat="44.26139" lon="3.20515">
        <ele>885.03</ele>
        <time>2026-05-20T09:54:33Z</time>
      </trkpt>
      <trkpt lat="44.26139" lon="3.20517">
        <ele>887.91</ele>
        <time>2026-05-20T09:54:34Z</time>
      </trkpt>
      <trkpt lat="44.26139" lon="3.20519">
        <ele>886.95</ele>
        <time>2026-05-20T09:54:35Z</time>
      </trkpt>
      <trkpt lat="44.26142" lon="3.20533">
        <ele>887.91</ele>
        <time>2026-05-20T09:54:47Z</time>
      </trkpt>
      <trkpt lat="44.26143" lon="3.20535">
        <ele>887.91</ele>
        <time>2026-05-20T09:54:48Z</time>
      </trkpt>
      <trkpt lat="44.26144" lon="3.20536">
        <ele>887.91</ele>
        <time>2026-05-20T09:54:49Z</time>
      </trkpt>
      <trkpt lat="44.26145" lon="3.20538">
        <ele>887.91</ele>
        <time>2026-05-20T09:54:50Z</time>
      </trkpt>
      <trkpt lat="44.26145" lon="3.2054">
        <ele>887.91</ele>
        <time>2026-05-20T09:54:51Z</time>
      </trkpt>
      <trkpt lat="44.26151" lon="3.20546">
        <ele>888.4</ele>
        <time>2026-05-20T09:54:59Z</time>
      </trkpt>
      <trkpt lat="44.26154" lon="3.20548">
        <ele>886.95</ele>
        <time>2026-05-20T09:55:01Z</time>
      </trkpt>
      <trkpt lat="44.26158" lon="3.20559">
        <ele>886.95</ele>
        <time>2026-05-20T09:55:09Z</time>
      </trkpt>
      <trkpt lat="44.26158" lon="3.2056">
        <ele>886.95</ele>
        <time>2026-05-20T09:55:10Z</time>
      </trkpt>
      <trkpt lat="44.26158" lon="3.20562">
        <ele>886.95</ele>
        <time>2026-05-20T09:55:11Z</time>
      </trkpt>
      <trkpt lat="44.26158" lon="3.20574">
        <ele>888.4</ele>
        <time>2026-05-20T09:55:20Z</time>
      </trkpt>
      <trkpt lat="44.26156" lon="3.20581">
        <ele>889.36</ele>
        <time>2026-05-20T09:55:29Z</time>
      </trkpt>
      <trkpt lat="44.26151" lon="3.2059">
        <ele>889.36</ele>
        <time>2026-05-20T09:55:39Z</time>
      </trkpt>
      <trkpt lat="44.26147" lon="3.20598">
        <ele>889.36</ele>
        <time>2026-05-20T09:55:48Z</time>
      </trkpt>
      <trkpt lat="44.26146" lon="3.20601">
        <ele>890.8</ele>
        <time>2026-05-20T09:55:51Z</time>
      </trkpt>
      <trkpt lat="44.26145" lon="3.20602">
        <ele>891.28</ele>
        <time>2026-05-20T09:55:52Z</time>
      </trkpt>
      <trkpt lat="44.26143" lon="3.20607">
        <ele>891.28</ele>
        <time>2026-05-20T09:55:57Z</time>
      </trkpt>
      <trkpt lat="44.26135" lon="3.20622">
        <ele>890.8</ele>
        <time>2026-05-20T09:56:12Z</time>
      </trkpt>
      <trkpt lat="44.26135" lon="3.20624">
        <ele>890.8</ele>
        <time>2026-05-20T09:56:14Z</time>
      </trkpt>
      <trkpt lat="44.26134" lon="3.20626">
        <ele>896.09</ele>
        <time>2026-05-20T09:56:16Z</time>
      </trkpt>
      <trkpt lat="44.26134" lon="3.20627">
        <ele>893.68</ele>
        <time>2026-05-20T09:56:17Z</time>
      </trkpt>
      <trkpt lat="44.26125" lon="3.20644">
        <ele>895.12</ele>
        <time>2026-05-20T09:56:32Z</time>
      </trkpt>
      <trkpt lat="44.26124" lon="3.20645">
        <ele>895.12</ele>
        <time>2026-05-20T09:56:33Z</time>
      </trkpt>
      <trkpt lat="44.26116" lon="3.2066">
        <ele>896.57</ele>
        <time>2026-05-20T09:56:49Z</time>
      </trkpt>
      <trkpt lat="44.26107" lon="3.20673">
        <ele>898.01</ele>
        <time>2026-05-20T09:57:05Z</time>
      </trkpt>
      <trkpt lat="44.26098" lon="3.20688">
        <ele>899.93</ele>
        <time>2026-05-20T09:57:21Z</time>
      </trkpt>
      <trkpt lat="44.26092" lon="3.20702">
        <ele>900.89</ele>
        <time>2026-05-20T09:57:35Z</time>
      </trkpt>
      <trkpt lat="44.26084" lon="3.20717">
        <ele>902.82</ele>
        <time>2026-05-20T09:57:50Z</time>
      </trkpt>
      <trkpt lat="44.26077" lon="3.20731">
        <ele>904.26</ele>
        <time>2026-05-20T09:58:05Z</time>
      </trkpt>
      <trkpt lat="44.26072" lon="3.20743">
        <ele>905.22</ele>
        <time>2026-05-20T09:58:18Z</time>
      </trkpt>
      <trkpt lat="44.26066" lon="3.20756">
        <ele>906.66</ele>
        <time>2026-05-20T09:58:32Z</time>
      </trkpt>
      <trkpt lat="44.26064" lon="3.2076">
        <ele>906.66</ele>
        <time>2026-05-20T09:58:35Z</time>
      </trkpt>
      <trkpt lat="44.26059" lon="3.20774">
        <ele>908.1</ele>
        <time>2026-05-20T09:58:49Z</time>
      </trkpt>
      <trkpt lat="44.26053" lon="3.20783">
        <ele>910.03</ele>
        <time>2026-05-20T09:59:01Z</time>
      </trkpt>
      <trkpt lat="44.26049" lon="3.20794">
        <ele>910.51</ele>
        <time>2026-05-20T09:59:14Z</time>
      </trkpt>
      <trkpt lat="44.26042" lon="3.20805">
        <ele>911.95</ele>
        <time>2026-05-20T09:59:27Z</time>
      </trkpt>
      <trkpt lat="44.26034" lon="3.2082">
        <ele>912.91</ele>
        <time>2026-05-20T09:59:43Z</time>
      </trkpt>
      <trkpt lat="44.26025" lon="3.20834">
        <ele>914.35</ele>
        <time>2026-05-20T09:59:58Z</time>
      </trkpt>
      <trkpt lat="44.26015" lon="3.2085">
        <ele>915.79</ele>
        <time>2026-05-20T10:00:14Z</time>
      </trkpt>
      <trkpt lat="44.26012" lon="3.20853">
        <ele>915.79</ele>
        <time>2026-05-20T10:00:19Z</time>
      </trkpt>
      <trkpt lat="44.2601" lon="3.20855">
        <ele>915.79</ele>
        <time>2026-05-20T10:00:21Z</time>
      </trkpt>
      <trkpt lat="44.26008" lon="3.20858">
        <ele>915.79</ele>
        <time>2026-05-20T10:00:25Z</time>
      </trkpt>
      <trkpt lat="44.26001" lon="3.20868">
        <ele>916.75</ele>
        <time>2026-05-20T10:00:36Z</time>
      </trkpt>
      <trkpt lat="44.26" lon="3.2087">
        <ele>916.75</ele>
        <time>2026-05-20T10:00:37Z</time>
      </trkpt>
      <trkpt lat="44.25998" lon="3.20877">
        <ele>914.83</ele>
        <time>2026-05-20T10:00:48Z</time>
      </trkpt>
      <trkpt lat="44.25999" lon="3.20878">
        <ele>915.79</ele>
        <time>2026-05-20T10:00:50Z</time>
      </trkpt>
      <trkpt lat="44.25994" lon="3.2088">
        <ele>920.6</ele>
        <time>2026-05-20T10:01:02Z</time>
      </trkpt>
      <trkpt lat="44.25991" lon="3.2088">
        <ele>917.24</ele>
        <time>2026-05-20T10:01:03Z</time>
      </trkpt>
      <trkpt lat="44.25986" lon="3.20886">
        <ele>913.87</ele>
        <time>2026-05-20T10:01:09Z</time>
      </trkpt>
      <trkpt lat="44.25985" lon="3.20887">
        <ele>919.64</ele>
        <time>2026-05-20T10:01:11Z</time>
      </trkpt>
      <trkpt lat="44.25984" lon="3.20888">
        <ele>919.64</ele>
        <time>2026-05-20T10:01:12Z</time>
      </trkpt>
      <trkpt lat="44.25983" lon="3.2089">
        <ele>916.27</ele>
        <time>2026-05-20T10:01:14Z</time>
      </trkpt>
      <trkpt lat="44.25982" lon="3.20891">
        <ele>916.27</ele>
        <time>2026-05-20T10:01:15Z</time>
      </trkpt>
      <trkpt lat="44.2598" lon="3.20894">
        <ele>917.72</ele>
        <time>2026-05-20T10:01:19Z</time>
      </trkpt>
      <trkpt lat="44.2597" lon="3.20908">
        <ele>916.75</ele>
        <time>2026-05-20T10:01:31Z</time>
      </trkpt>
      <trkpt lat="44.25967" lon="3.20911">
        <ele>916.27</ele>
        <time>2026-05-20T10:01:35Z</time>
      </trkpt>
      <trkpt lat="44.25957" lon="3.20924">
        <ele>917.24</ele>
        <time>2026-05-20T10:01:48Z</time>
      </trkpt>
      <trkpt lat="44.25954" lon="3.20939">
        <ele>917.24</ele>
        <time>2026-05-20T10:02:00Z</time>
      </trkpt>
      <trkpt lat="44.25955" lon="3.20941">
        <ele>917.24</ele>
        <time>2026-05-20T10:02:01Z</time>
      </trkpt>
      <trkpt lat="44.25956" lon="3.20942">
        <ele>915.31</ele>
        <time>2026-05-20T10:02:02Z</time>
      </trkpt>
      <trkpt lat="44.25957" lon="3.20943">
        <ele>915.31</ele>
        <time>2026-05-20T10:02:03Z</time>
      </trkpt>
      <trkpt lat="44.25967" lon="3.20958">
        <ele>915.31</ele>
        <time>2026-05-20T10:02:17Z</time>
      </trkpt>
      <trkpt lat="44.2597" lon="3.20961">
        <ele>914.83</ele>
        <time>2026-05-20T10:02:21Z</time>
      </trkpt>
      <trkpt lat="44.25971" lon="3.20962">
        <ele>914.83</ele>
        <time>2026-05-20T10:02:22Z</time>
      </trkpt>
      <trkpt lat="44.25971" lon="3.20963">
        <ele>914.83</ele>
        <time>2026-05-20T10:02:23Z</time>
      </trkpt>
      <trkpt lat="44.25982" lon="3.20974">
        <ele>911.47</ele>
        <time>2026-05-20T10:02:37Z</time>
      </trkpt>
      <trkpt lat="44.25983" lon="3.20975">
        <ele>914.83</ele>
        <time>2026-05-20T10:02:38Z</time>
      </trkpt>
      <trkpt lat="44.25986" lon="3.20978">
        <ele>913.39</ele>
        <time>2026-05-20T10:02:41Z</time>
      </trkpt>
      <trkpt lat="44.25996" lon="3.20989">
        <ele>912.43</ele>
        <time>2026-05-20T10:02:55Z</time>
      </trkpt>
      <trkpt lat="44.25998" lon="3.20992">
        <ele>910.99</ele>
        <time>2026-05-20T10:02:58Z</time>
      </trkpt>
      <trkpt lat="44.25999" lon="3.20993">
        <ele>909.54</ele>
        <time>2026-05-20T10:02:59Z</time>
      </trkpt>
      <trkpt lat="44.26" lon="3.20995">
        <ele>914.35</ele>
        <time>2026-05-20T10:03:00Z</time>
      </trkpt>
      <trkpt lat="44.26002" lon="3.20996">
        <ele>914.35</ele>
        <time>2026-05-20T10:03:01Z</time>
      </trkpt>
      <trkpt lat="44.26004" lon="3.20999">
        <ele>912.91</ele>
        <time>2026-05-20T10:03:03Z</time>
      </trkpt>
      <trkpt lat="44.26005" lon="3.21">
        <ele>908.58</ele>
        <time>2026-05-20T10:03:05Z</time>
      </trkpt>
      <trkpt lat="44.26006" lon="3.21">
        <ele>915.31</ele>
        <time>2026-05-20T10:03:06Z</time>
      </trkpt>
      <trkpt lat="44.26007" lon="3.21001">
        <ele>911.47</ele>
        <time>2026-05-20T10:03:08Z</time>
      </trkpt>
      <trkpt lat="44.26008" lon="3.21002">
        <ele>911.47</ele>
        <time>2026-05-20T10:03:09Z</time>
      </trkpt>
      <trkpt lat="44.26021" lon="3.21017">
        <ele>910.03</ele>
        <time>2026-05-20T10:03:27Z</time>
      </trkpt>
      <trkpt lat="44.26022" lon="3.21018">
        <ele>910.03</ele>
        <time>2026-05-20T10:03:28Z</time>
      </trkpt>
      <trkpt lat="44.26023" lon="3.2102">
        <ele>910.03</ele>
        <time>2026-05-20T10:03:29Z</time>
      </trkpt>
      <trkpt lat="44.26025" lon="3.21021">
        <ele>910.03</ele>
        <time>2026-05-20T10:03:30Z</time>
      </trkpt>
      <trkpt lat="44.26028" lon="3.21023">
        <ele>910.99</ele>
        <time>2026-05-20T10:03:35Z</time>
      </trkpt>
      <trkpt lat="44.26037" lon="3.2103">
        <ele>911.47</ele>
        <time>2026-05-20T10:03:42Z</time>
      </trkpt>
      <trkpt lat="44.26039" lon="3.21032">
        <ele>910.03</ele>
        <time>2026-05-20T10:03:44Z</time>
      </trkpt>
      <trkpt lat="44.26044" lon="3.21036">
        <ele>909.06</ele>
        <time>2026-05-20T10:03:50Z</time>
      </trkpt>
      <trkpt lat="44.26045" lon="3.21038">
        <ele>908.58</ele>
        <time>2026-05-20T10:03:51Z</time>
      </trkpt>
      <trkpt lat="44.26046" lon="3.21039">
        <ele>910.51</ele>
        <time>2026-05-20T10:03:52Z</time>
      </trkpt>
      <trkpt lat="44.26047" lon="3.21039">
        <ele>910.51</ele>
        <time>2026-05-20T10:03:53Z</time>
      </trkpt>
      <trkpt lat="44.26053" lon="3.21044">
        <ele>909.54</ele>
        <time>2026-05-20T10:04:01Z</time>
      </trkpt>
      <trkpt lat="44.26063" lon="3.21049">
        <ele>910.51</ele>
        <time>2026-05-20T10:04:12Z</time>
      </trkpt>
      <trkpt lat="44.26064" lon="3.2105">
        <ele>910.51</ele>
        <time>2026-05-20T10:04:13Z</time>
      </trkpt>
      <trkpt lat="44.26076" lon="3.21058">
        <ele>911.47</ele>
        <time>2026-05-20T10:04:28Z</time>
      </trkpt>
      <trkpt lat="44.2608" lon="3.21064">
        <ele>911.47</ele>
        <time>2026-05-20T10:04:35Z</time>
      </trkpt>
      <trkpt lat="44.2608" lon="3.21067">
        <ele>911.95</ele>
        <time>2026-05-20T10:04:37Z</time>
      </trkpt>
      <trkpt lat="44.2608" lon="3.21068">
        <ele>907.14</ele>
        <time>2026-05-20T10:04:38Z</time>
      </trkpt>
      <trkpt lat="44.26079" lon="3.21069">
        <ele>913.39</ele>
        <time>2026-05-20T10:04:39Z</time>
      </trkpt>
      <trkpt lat="44.26079" lon="3.2107">
        <ele>913.39</ele>
        <time>2026-05-20T10:04:40Z</time>
      </trkpt>
      <trkpt lat="44.26078" lon="3.21071">
        <ele>911.47</ele>
        <time>2026-05-20T10:04:41Z</time>
      </trkpt>
      <trkpt lat="44.26077" lon="3.21071">
        <ele>911.47</ele>
        <time>2026-05-20T10:04:42Z</time>
      </trkpt>
      <trkpt lat="44.26075" lon="3.21073">
        <ele>910.03</ele>
        <time>2026-05-20T10:04:45Z</time>
      </trkpt>
      <trkpt lat="44.2607" lon="3.21078">
        <ele>911.95</ele>
        <time>2026-05-20T10:04:56Z</time>
      </trkpt>
      <trkpt lat="44.2607" lon="3.21079">
        <ele>910.51</ele>
        <time>2026-05-20T10:04:58Z</time>
      </trkpt>
      <trkpt lat="44.26067" lon="3.2108">
        <ele>910.51</ele>
        <time>2026-05-20T10:05:04Z</time>
      </trkpt>
      <trkpt lat="44.26058" lon="3.21073">
        <ele>910.03</ele>
        <time>2026-05-20T10:05:18Z</time>
      </trkpt>
      <trkpt lat="44.26058" lon="3.21081">
        <ele>910.03</ele>
        <time>2026-05-20T10:05:47Z</time>
      </trkpt>
      <trkpt lat="44.26062" lon="3.21077">
        <ele>910.03</ele>
        <time>2026-05-20T10:06:20Z</time>
      </trkpt>
      <trkpt lat="44.26072" lon="3.21076">
        <ele>910.03</ele>
        <time>2026-05-20T10:06:34Z</time>
      </trkpt>
      <trkpt lat="44.2607" lon="3.21081">
        <ele>910.03</ele>
        <time>2026-05-20T10:06:57Z</time>
      </trkpt>
      <trkpt lat="44.26069" lon="3.21084">
        <ele>909.06</ele>
        <time>2026-05-20T10:07:16Z</time>
      </trkpt>
      <trkpt lat="44.26069" lon="3.21083">
        <ele>909.06</ele>
        <time>2026-05-20T10:07:46Z</time>
      </trkpt>
      <trkpt lat="44.26065" lon="3.21084">
        <ele>909.06</ele>
        <time>2026-05-20T10:08:21Z</time>
      </trkpt>
      <trkpt lat="44.26066" lon="3.21085">
        <ele>910.03</ele>
        <time>2026-05-20T10:08:41Z</time>
      </trkpt>
      <trkpt lat="44.26067" lon="3.21084">
        <ele>909.06</ele>
        <time>2026-05-20T10:08:55Z</time>
      </trkpt>
      <trkpt lat="44.26067" lon="3.21084">
        <ele>909.06</ele>
        <time>2026-05-20T10:08:56Z</time>
      </trkpt>
      <trkpt lat="44.26064" lon="3.21082">
        <ele>908.58</ele>
        <time>2026-05-20T10:09:25Z</time>
      </trkpt>
      <trkpt lat="44.26064" lon="3.21087">
        <ele>909.06</ele>
        <time>2026-05-20T10:09:33Z</time>
      </trkpt>
      <trkpt lat="44.26053" lon="3.211">
        <ele>907.14</ele>
        <time>2026-05-20T10:09:49Z</time>
      </trkpt>
      <trkpt lat="44.26044" lon="3.2111">
        <ele>905.7</ele>
        <time>2026-05-20T10:10:01Z</time>
      </trkpt>
      <trkpt lat="44.26041" lon="3.21113">
        <ele>904.26</ele>
        <time>2026-05-20T10:10:06Z</time>
      </trkpt>
      <trkpt lat="44.26035" lon="3.21118">
        <ele>904.26</ele>
        <time>2026-05-20T10:10:19Z</time>
      </trkpt>
      <trkpt lat="44.26025" lon="3.2113">
        <ele>900.89</ele>
        <time>2026-05-20T10:10:35Z</time>
      </trkpt>
      <trkpt lat="44.26022" lon="3.21134">
        <ele>899.45</ele>
        <time>2026-05-20T10:10:49Z</time>
      </trkpt>
      <trkpt lat="44.26023" lon="3.21133">
        <ele>898.97</ele>
        <time>2026-05-20T10:10:55Z</time>
      </trkpt>
      <trkpt lat="44.26013" lon="3.2115">
        <ele>896.09</ele>
        <time>2026-05-20T10:11:11Z</time>
      </trkpt>
      <trkpt lat="44.26009" lon="3.21153">
        <ele>895.61</ele>
        <time>2026-05-20T10:11:16Z</time>
      </trkpt>
      <trkpt lat="44.25997" lon="3.21167">
        <ele>892.72</ele>
        <time>2026-05-20T10:11:31Z</time>
      </trkpt>
      <trkpt lat="44.25992" lon="3.21173">
        <ele>891.76</ele>
        <time>2026-05-20T10:11:38Z</time>
      </trkpt>
      <trkpt lat="44.25978" lon="3.21183">
        <ele>890.32</ele>
        <time>2026-05-20T10:11:54Z</time>
      </trkpt>
      <trkpt lat="44.25973" lon="3.21191">
        <ele>888.4</ele>
        <time>2026-05-20T10:12:06Z</time>
      </trkpt>
      <trkpt lat="44.25964" lon="3.21197">
        <ele>885.99</ele>
        <time>2026-05-20T10:12:15Z</time>
      </trkpt>
      <trkpt lat="44.25954" lon="3.21206">
        <ele>886.47</ele>
        <time>2026-05-20T10:12:30Z</time>
      </trkpt>
      <trkpt lat="44.25947" lon="3.21212">
        <ele>885.99</ele>
        <time>2026-05-20T10:12:44Z</time>
      </trkpt>
      <trkpt lat="44.25938" lon="3.2122">
        <ele>884.55</ele>
        <time>2026-05-20T10:12:56Z</time>
      </trkpt>
      <trkpt lat="44.25929" lon="3.21226">
        <ele>882.63</ele>
        <time>2026-05-20T10:13:11Z</time>
      </trkpt>
      <trkpt lat="44.25921" lon="3.21233">
        <ele>880.22</ele>
        <time>2026-05-20T10:13:25Z</time>
      </trkpt>
      <trkpt lat="44.25911" lon="3.21239">
        <ele>876.86</ele>
        <time>2026-05-20T10:13:41Z</time>
      </trkpt>
      <trkpt lat="44.25904" lon="3.21245">
        <ele>875.9</ele>
        <time>2026-05-20T10:13:53Z</time>
      </trkpt>
      <trkpt lat="44.25897" lon="3.21251">
        <ele>873.01</ele>
        <time>2026-05-20T10:14:08Z</time>
      </trkpt>
      <trkpt lat="44.25886" lon="3.21259">
        <ele>870.61</ele>
        <time>2026-05-20T10:14:23Z</time>
      </trkpt>
      <trkpt lat="44.25878" lon="3.21267">
        <ele>868.69</ele>
        <time>2026-05-20T10:14:38Z</time>
      </trkpt>
      <trkpt lat="44.25869" lon="3.21276">
        <ele>865.8</ele>
        <time>2026-05-20T10:14:53Z</time>
      </trkpt>
      <trkpt lat="44.25861" lon="3.21282">
        <ele>862.92</ele>
        <time>2026-05-20T10:15:05Z</time>
      </trkpt>
      <trkpt lat="44.25861" lon="3.21283">
        <ele>862.92</ele>
        <time>2026-05-20T10:15:06Z</time>
      </trkpt>
      <trkpt lat="44.25853" lon="3.21291">
        <ele>860.04</ele>
        <time>2026-05-20T10:15:19Z</time>
      </trkpt>
      <trkpt lat="44.25846" lon="3.213">
        <ele>858.11</ele>
        <time>2026-05-20T10:15:31Z</time>
      </trkpt>
      <trkpt lat="44.25842" lon="3.21302">
        <ele>857.15</ele>
        <time>2026-05-20T10:15:49Z</time>
      </trkpt>
      <trkpt lat="44.25838" lon="3.21307">
        <ele>855.71</ele>
        <time>2026-05-20T10:15:59Z</time>
      </trkpt>
      <trkpt lat="44.25824" lon="3.21318">
        <ele>853.79</ele>
        <time>2026-05-20T10:16:14Z</time>
      </trkpt>
      <trkpt lat="44.25809" lon="3.21329">
        <ele>851.38</ele>
        <time>2026-05-20T10:16:31Z</time>
      </trkpt>
      <trkpt lat="44.25792" lon="3.21336">
        <ele>850.42</ele>
        <time>2026-05-20T10:16:48Z</time>
      </trkpt>
      <trkpt lat="44.25785" lon="3.21341">
        <ele>848.98</ele>
        <time>2026-05-20T10:16:58Z</time>
      </trkpt>
      <trkpt lat="44.2577" lon="3.21355">
        <ele>848.02</ele>
        <time>2026-05-20T10:17:15Z</time>
      </trkpt>
      <trkpt lat="44.25757" lon="3.21365">
        <ele>847.54</ele>
        <time>2026-05-20T10:17:27Z</time>
      </trkpt>
      <trkpt lat="44.25743" lon="3.21375">
        <ele>846.58</ele>
        <time>2026-05-20T10:17:40Z</time>
      </trkpt>
      <trkpt lat="44.25727" lon="3.21388">
        <ele>846.58</ele>
        <time>2026-05-20T10:17:58Z</time>
      </trkpt>
      <trkpt lat="44.25716" lon="3.21398">
        <ele>844.66</ele>
        <time>2026-05-20T10:18:14Z</time>
      </trkpt>
      <trkpt lat="44.25705" lon="3.21404">
        <ele>842.73</ele>
        <time>2026-05-20T10:18:29Z</time>
      </trkpt>
      <trkpt lat="44.25698" lon="3.21417">
        <ele>842.25</ele>
        <time>2026-05-20T10:18:42Z</time>
      </trkpt>
      <trkpt lat="44.25702" lon="3.21429">
        <ele>840.33</ele>
        <time>2026-05-20T10:18:58Z</time>
      </trkpt>
      <trkpt lat="44.25705" lon="3.2144">
        <ele>839.85</ele>
        <time>2026-05-20T10:19:13Z</time>
      </trkpt>
      <trkpt lat="44.25721" lon="3.21446">
        <ele>839.37</ele>
        <time>2026-05-20T10:19:31Z</time>
      </trkpt>
      <trkpt lat="44.25726" lon="3.21448">
        <ele>836.48</ele>
        <time>2026-05-20T10:19:40Z</time>
      </trkpt>
      <trkpt lat="44.25726" lon="3.21448">
        <ele>841.29</ele>
        <time>2026-05-20T10:19:42Z</time>
      </trkpt>
      <trkpt lat="44.25727" lon="3.21448">
        <ele>841.29</ele>
        <time>2026-05-20T10:19:43Z</time>
      </trkpt>
      <trkpt lat="44.25728" lon="3.21448">
        <ele>839.85</ele>
        <time>2026-05-20T10:19:45Z</time>
      </trkpt>
      <trkpt lat="44.25732" lon="3.21451">
        <ele>839.37</ele>
        <time>2026-05-20T10:20:14Z</time>
      </trkpt>
      <trkpt lat="44.25728" lon="3.21451">
        <ele>838.41</ele>
        <time>2026-05-20T10:20:40Z</time>
      </trkpt>
      <trkpt lat="44.25729" lon="3.21451">
        <ele>838.41</ele>
        <time>2026-05-20T10:21:00Z</time>
      </trkpt>
      <trkpt lat="44.25737" lon="3.21454">
        <ele>839.85</ele>
        <time>2026-05-20T10:21:09Z</time>
      </trkpt>
      <trkpt lat="44.25745" lon="3.21456">
        <ele>838.89</ele>
        <time>2026-05-20T10:21:26Z</time>
      </trkpt>
      <trkpt lat="44.25744" lon="3.21456">
        <ele>840.81</ele>
        <time>2026-05-20T10:21:30Z</time>
      </trkpt>
      <trkpt lat="44.25745" lon="3.21456">
        <ele>839.37</ele>
        <time>2026-05-20T10:21:32Z</time>
      </trkpt>
      <trkpt lat="44.25745" lon="3.2146">
        <ele>839.85</ele>
        <time>2026-05-20T10:21:43Z</time>
      </trkpt>
      <trkpt lat="44.25746" lon="3.21458">
        <ele>840.33</ele>
        <time>2026-05-20T10:22:01Z</time>
      </trkpt>
      <trkpt lat="44.25749" lon="3.21455">
        <ele>839.37</ele>
        <time>2026-05-20T10:22:24Z</time>
      </trkpt>
      <trkpt lat="44.25751" lon="3.21455">
        <ele>838.89</ele>
        <time>2026-05-20T10:22:31Z</time>
      </trkpt>
      <trkpt lat="44.25751" lon="3.21458">
        <ele>838.89</ele>
        <time>2026-05-20T10:22:43Z</time>
      </trkpt>
      <trkpt lat="44.25754" lon="3.2146">
        <ele>840.33</ele>
        <time>2026-05-20T10:23:00Z</time>
      </trkpt>
      <trkpt lat="44.25756" lon="3.21463">
        <ele>829.76</ele>
        <time>2026-05-20T10:23:06Z</time>
      </trkpt>
      <trkpt lat="44.25757" lon="3.21464">
        <ele>847.06</ele>
        <time>2026-05-20T10:23:07Z</time>
      </trkpt>
      <trkpt lat="44.25758" lon="3.21464">
        <ele>841.77</ele>
        <time>2026-05-20T10:23:08Z</time>
      </trkpt>
      <trkpt lat="44.25759" lon="3.21466">
        <ele>837.93</ele>
        <time>2026-05-20T10:23:10Z</time>
      </trkpt>
      <trkpt lat="44.25768" lon="3.21476">
        <ele>838.89</ele>
        <time>2026-05-20T10:23:23Z</time>
      </trkpt>
      <trkpt lat="44.25768" lon="3.21488">
        <ele>838.41</ele>
        <time>2026-05-20T10:23:36Z</time>
      </trkpt>
      <trkpt lat="44.2577" lon="3.21502">
        <ele>837.45</ele>
        <time>2026-05-20T10:23:48Z</time>
      </trkpt>
      <trkpt lat="44.25773" lon="3.21506">
        <ele>835.04</ele>
        <time>2026-05-20T10:23:52Z</time>
      </trkpt>
      <trkpt lat="44.25773" lon="3.21507">
        <ele>838.89</ele>
        <time>2026-05-20T10:23:53Z</time>
      </trkpt>
      <trkpt lat="44.25775" lon="3.21509">
        <ele>834.56</ele>
        <time>2026-05-20T10:23:55Z</time>
      </trkpt>
      <trkpt lat="44.25776" lon="3.21511">
        <ele>838.41</ele>
        <time>2026-05-20T10:23:56Z</time>
      </trkpt>
      <trkpt lat="44.25777" lon="3.2152">
        <ele>838.41</ele>
        <time>2026-05-20T10:24:05Z</time>
      </trkpt>
      <trkpt lat="44.25775" lon="3.21524">
        <ele>836.96</ele>
        <time>2026-05-20T10:24:09Z</time>
      </trkpt>
      <trkpt lat="44.25773" lon="3.21534">
        <ele>837.45</ele>
        <time>2026-05-20T10:24:24Z</time>
      </trkpt>
      <trkpt lat="44.25773" lon="3.21534">
        <ele>836</ele>
        <time>2026-05-20T10:24:26Z</time>
      </trkpt>
      <trkpt lat="44.25773" lon="3.21534">
        <ele>837.93</ele>
        <time>2026-05-20T10:24:28Z</time>
      </trkpt>
      <trkpt lat="44.25772" lon="3.21539">
        <ele>836.48</ele>
        <time>2026-05-20T10:24:43Z</time>
      </trkpt>
      <trkpt lat="44.25777" lon="3.21538">
        <ele>836.48</ele>
        <time>2026-05-20T10:24:57Z</time>
      </trkpt>
      <trkpt lat="44.2578" lon="3.21548">
        <ele>837.45</ele>
        <time>2026-05-20T10:25:09Z</time>
      </trkpt>
      <trkpt lat="44.25781" lon="3.21552">
        <ele>836</ele>
        <time>2026-05-20T10:25:12Z</time>
      </trkpt>
      <trkpt lat="44.25783" lon="3.21556">
        <ele>837.93</ele>
        <time>2026-05-20T10:25:16Z</time>
      </trkpt>
      <trkpt lat="44.25784" lon="3.2156">
        <ele>836</ele>
        <time>2026-05-20T10:25:19Z</time>
      </trkpt>
      <trkpt lat="44.25785" lon="3.21562">
        <ele>837.45</ele>
        <time>2026-05-20T10:25:22Z</time>
      </trkpt>
      <trkpt lat="44.25785" lon="3.21564">
        <ele>839.85</ele>
        <time>2026-05-20T10:25:27Z</time>
      </trkpt>
      <trkpt lat="44.25786" lon="3.21565">
        <ele>837.45</ele>
        <time>2026-05-20T10:25:30Z</time>
      </trkpt>
      <trkpt lat="44.25791" lon="3.21567">
        <ele>836.96</ele>
        <time>2026-05-20T10:25:56Z</time>
      </trkpt>
      <trkpt lat="44.2579" lon="3.21573">
        <ele>836.96</ele>
        <time>2026-05-20T10:26:14Z</time>
      </trkpt>
      <trkpt lat="44.25778" lon="3.21589">
        <ele>836</ele>
        <time>2026-05-20T10:26:29Z</time>
      </trkpt>
      <trkpt lat="44.25773" lon="3.21605">
        <ele>835.04</ele>
        <time>2026-05-20T10:26:42Z</time>
      </trkpt>
      <trkpt lat="44.2578" lon="3.2162">
        <ele>834.56</ele>
        <time>2026-05-20T10:26:59Z</time>
      </trkpt>
      <trkpt lat="44.25779" lon="3.21631">
        <ele>833.6</ele>
        <time>2026-05-20T10:27:14Z</time>
      </trkpt>
      <trkpt lat="44.25782" lon="3.21643">
        <ele>832.64</ele>
        <time>2026-05-20T10:27:23Z</time>
      </trkpt>
      <trkpt lat="44.25783" lon="3.21647">
        <ele>832.64</ele>
        <time>2026-05-20T10:27:26Z</time>
      </trkpt>
      <trkpt lat="44.25786" lon="3.21657">
        <ele>835.04</ele>
        <time>2026-05-20T10:27:42Z</time>
      </trkpt>
      <trkpt lat="44.25787" lon="3.21658">
        <ele>835.04</ele>
        <time>2026-05-20T10:27:43Z</time>
      </trkpt>
      <trkpt lat="44.25787" lon="3.2166">
        <ele>832.64</ele>
        <time>2026-05-20T10:27:51Z</time>
      </trkpt>
      <trkpt lat="44.25786" lon="3.21661">
        <ele>834.08</ele>
        <time>2026-05-20T10:28:00Z</time>
      </trkpt>
      <trkpt lat="44.25777" lon="3.21654">
        <ele>834.08</ele>
        <time>2026-05-20T10:28:24Z</time>
      </trkpt>
      <trkpt lat="44.25783" lon="3.21665">
        <ele>833.6</ele>
        <time>2026-05-20T10:28:38Z</time>
      </trkpt>
      <trkpt lat="44.25785" lon="3.21675">
        <ele>833.6</ele>
        <time>2026-05-20T10:28:53Z</time>
      </trkpt>
      <trkpt lat="44.25789" lon="3.21684">
        <ele>835.04</ele>
        <time>2026-05-20T10:29:03Z</time>
      </trkpt>
      <trkpt lat="44.25793" lon="3.21682">
        <ele>833.12</ele>
        <time>2026-05-20T10:29:17Z</time>
      </trkpt>
      <trkpt lat="44.25791" lon="3.21682">
        <ele>830.24</ele>
        <time>2026-05-20T10:29:36Z</time>
      </trkpt>
      <trkpt lat="44.2579" lon="3.21682">
        <ele>830.24</ele>
        <time>2026-05-20T10:29:37Z</time>
      </trkpt>
      <trkpt lat="44.25784" lon="3.21672">
        <ele>827.35</ele>
        <time>2026-05-20T10:29:51Z</time>
      </trkpt>
      <trkpt lat="44.25789" lon="3.21671">
        <ele>826.87</ele>
        <time>2026-05-20T10:30:08Z</time>
      </trkpt>
      <trkpt lat="44.25788" lon="3.21669">
        <ele>826.87</ele>
        <time>2026-05-20T10:30:27Z</time>
      </trkpt>
      <trkpt lat="44.25787" lon="3.21675">
        <ele>827.35</ele>
        <time>2026-05-20T10:30:33Z</time>
      </trkpt>
      <trkpt lat="44.25793" lon="3.2168">
        <ele>827.35</ele>
        <time>2026-05-20T10:30:38Z</time>
      </trkpt>
      <trkpt lat="44.25798" lon="3.2168">
        <ele>826.87</ele>
        <time>2026-05-20T10:30:57Z</time>
      </trkpt>
      <trkpt lat="44.25802" lon="3.21679">
        <ele>825.43</ele>
        <time>2026-05-20T10:31:14Z</time>
      </trkpt>
      <trkpt lat="44.25794" lon="3.21679">
        <ele>826.87</ele>
        <time>2026-05-20T10:31:55Z</time>
      </trkpt>
      <trkpt lat="44.25804" lon="3.21664">
        <ele>828.31</ele>
        <time>2026-05-20T10:32:09Z</time>
      </trkpt>
      <trkpt lat="44.25803" lon="3.21673">
        <ele>831.2</ele>
        <time>2026-05-20T10:32:24Z</time>
      </trkpt>
      <trkpt lat="44.25806" lon="3.21667">
        <ele>832.64</ele>
        <time>2026-05-20T10:32:40Z</time>
      </trkpt>
      <trkpt lat="44.25814" lon="3.21672">
        <ele>834.08</ele>
        <time>2026-05-20T10:32:54Z</time>
      </trkpt>
      <trkpt lat="44.25824" lon="3.21686">
        <ele>836.48</ele>
        <time>2026-05-20T10:33:10Z</time>
      </trkpt>
      <trkpt lat="44.25822" lon="3.21688">
        <ele>838.41</ele>
        <time>2026-05-20T10:33:17Z</time>
      </trkpt>
      <trkpt lat="44.25828" lon="3.21697">
        <ele>838.41</ele>
        <time>2026-05-20T10:33:34Z</time>
      </trkpt>
      <trkpt lat="44.25828" lon="3.21704">
        <ele>839.37</ele>
        <time>2026-05-20T10:33:48Z</time>
      </trkpt>
      <trkpt lat="44.25825" lon="3.21706">
        <ele>839.37</ele>
        <time>2026-05-20T10:34:04Z</time>
      </trkpt>
      <trkpt lat="44.25825" lon="3.2172">
        <ele>839.37</ele>
        <time>2026-05-20T10:34:16Z</time>
      </trkpt>
      <trkpt lat="44.25826" lon="3.21728">
        <ele>839.85</ele>
        <time>2026-05-20T10:34:22Z</time>
      </trkpt>
      <trkpt lat="44.2583" lon="3.21742">
        <ele>838.41</ele>
        <time>2026-05-20T10:34:35Z</time>
      </trkpt>
      <trkpt lat="44.25832" lon="3.21758">
        <ele>839.85</ele>
        <time>2026-05-20T10:34:47Z</time>
      </trkpt>
      <trkpt lat="44.25832" lon="3.21772">
        <ele>841.77</ele>
        <time>2026-05-20T10:35:01Z</time>
      </trkpt>
      <trkpt lat="44.25834" lon="3.21783">
        <ele>843.69</ele>
        <time>2026-05-20T10:35:12Z</time>
      </trkpt>
      <trkpt lat="44.25836" lon="3.21791">
        <ele>844.18</ele>
        <time>2026-05-20T10:35:21Z</time>
      </trkpt>
      <trkpt lat="44.25837" lon="3.21795">
        <ele>845.14</ele>
        <time>2026-05-20T10:35:25Z</time>
      </trkpt>
      <trkpt lat="44.25841" lon="3.21807">
        <ele>845.62</ele>
        <time>2026-05-20T10:35:37Z</time>
      </trkpt>
      <trkpt lat="44.25846" lon="3.21823">
        <ele>846.58</ele>
        <time>2026-05-20T10:35:53Z</time>
      </trkpt>
      <trkpt lat="44.25851" lon="3.21833">
        <ele>847.54</ele>
        <time>2026-05-20T10:36:01Z</time>
      </trkpt>
      <trkpt lat="44.25855" lon="3.21854">
        <ele>847.54</ele>
        <time>2026-05-20T10:36:16Z</time>
      </trkpt>
      <trkpt lat="44.25861" lon="3.21874">
        <ele>848.98</ele>
        <time>2026-05-20T10:36:33Z</time>
      </trkpt>
      <trkpt lat="44.25866" lon="3.21895">
        <ele>848.98</ele>
        <time>2026-05-20T10:36:48Z</time>
      </trkpt>
      <trkpt lat="44.2587" lon="3.21908">
        <ele>848.98</ele>
        <time>2026-05-20T10:37:01Z</time>
      </trkpt>
      <trkpt lat="44.25874" lon="3.21918">
        <ele>849.94</ele>
        <time>2026-05-20T10:37:17Z</time>
      </trkpt>
      <trkpt lat="44.25874" lon="3.21925">
        <ele>848.02</ele>
        <time>2026-05-20T10:37:24Z</time>
      </trkpt>
      <trkpt lat="44.25865" lon="3.21941">
        <ele>845.62</ele>
        <time>2026-05-20T10:37:38Z</time>
      </trkpt>
      <trkpt lat="44.25862" lon="3.21942">
        <ele>871.09</ele>
        <time>2026-05-20T10:37:40Z</time>
      </trkpt>
      <trkpt lat="44.25861" lon="3.21942">
        <ele>854.27</ele>
        <time>2026-05-20T10:37:41Z</time>
      </trkpt>
      <trkpt lat="44.2586" lon="3.21943">
        <ele>848.98</ele>
        <time>2026-05-20T10:37:42Z</time>
      </trkpt>
      <trkpt lat="44.25859" lon="3.21943">
        <ele>848.02</ele>
        <time>2026-05-20T10:37:43Z</time>
      </trkpt>
      <trkpt lat="44.25856" lon="3.21946">
        <ele>849.46</ele>
        <time>2026-05-20T10:37:46Z</time>
      </trkpt>
      <trkpt lat="44.25853" lon="3.21949">
        <ele>849.46</ele>
        <time>2026-05-20T10:37:50Z</time>
      </trkpt>
      <trkpt lat="44.25841" lon="3.21963">
        <ele>848.02</ele>
        <time>2026-05-20T10:38:03Z</time>
      </trkpt>
      <trkpt lat="44.25841" lon="3.21965">
        <ele>848.02</ele>
        <time>2026-05-20T10:38:05Z</time>
      </trkpt>
      <trkpt lat="44.25836" lon="3.21975">
        <ele>848.02</ele>
        <time>2026-05-20T10:38:20Z</time>
      </trkpt>
      <trkpt lat="44.25836" lon="3.21972">
        <ele>848.02</ele>
        <time>2026-05-20T10:38:36Z</time>
      </trkpt>
      <trkpt lat="44.25834" lon="3.21972">
        <ele>847.06</ele>
        <time>2026-05-20T10:39:01Z</time>
      </trkpt>
      <trkpt lat="44.25837" lon="3.2197">
        <ele>847.06</ele>
        <time>2026-05-20T10:39:26Z</time>
      </trkpt>
      <trkpt lat="44.25837" lon="3.2197">
        <ele>847.06</ele>
        <time>2026-05-20T10:39:55Z</time>
      </trkpt>
      <trkpt lat="44.25837" lon="3.21967">
        <ele>847.06</ele>
        <time>2026-05-20T10:40:27Z</time>
      </trkpt>
      <trkpt lat="44.25829" lon="3.21965">
        <ele>847.06</ele>
        <time>2026-05-20T10:41:00Z</time>
      </trkpt>
      <trkpt lat="44.25829" lon="3.21964">
        <ele>847.54</ele>
        <time>2026-05-20T10:41:36Z</time>
      </trkpt>
      <trkpt lat="44.25833" lon="3.21967">
        <ele>848.5</ele>
        <time>2026-05-20T10:42:06Z</time>
      </trkpt>
      <trkpt lat="44.25833" lon="3.21967">
        <ele>848.98</ele>
        <time>2026-05-20T10:42:36Z</time>
      </trkpt>
      <trkpt lat="44.25831" lon="3.21972">
        <ele>848.98</ele>
        <time>2026-05-20T10:43:13Z</time>
      </trkpt>
      <trkpt lat="44.25831" lon="3.21969">
        <ele>848.98</ele>
        <time>2026-05-20T10:43:43Z</time>
      </trkpt>
      <trkpt lat="44.25831" lon="3.21969">
        <ele>848.98</ele>
        <time>2026-05-20T10:44:10Z</time>
      </trkpt>
      <trkpt lat="44.25831" lon="3.21967">
        <ele>848.02</ele>
        <time>2026-05-20T10:44:27Z</time>
      </trkpt>
      <trkpt lat="44.25831" lon="3.21966">
        <ele>848.02</ele>
        <time>2026-05-20T10:44:53Z</time>
      </trkpt>
      <trkpt lat="44.25829" lon="3.21964">
        <ele>848.02</ele>
        <time>2026-05-20T10:45:19Z</time>
      </trkpt>
      <trkpt lat="44.25832" lon="3.21966">
        <ele>848.02</ele>
        <time>2026-05-20T10:45:55Z</time>
      </trkpt>
      <trkpt lat="44.25828" lon="3.21966">
        <ele>847.54</ele>
        <time>2026-05-20T10:46:28Z</time>
      </trkpt>
      <trkpt lat="44.25828" lon="3.2197">
        <ele>848.02</ele>
        <time>2026-05-20T10:46:54Z</time>
      </trkpt>
      <trkpt lat="44.25828" lon="3.21961">
        <ele>847.54</ele>
        <time>2026-05-20T10:47:28Z</time>
      </trkpt>
      <trkpt lat="44.25837" lon="3.21962">
        <ele>847.54</ele>
        <time>2026-05-20T10:48:01Z</time>
      </trkpt>
      <trkpt lat="44.25835" lon="3.21961">
        <ele>847.54</ele>
        <time>2026-05-20T10:48:32Z</time>
      </trkpt>
      <trkpt lat="44.25834" lon="3.21964">
        <ele>848.02</ele>
        <time>2026-05-20T10:49:02Z</time>
      </trkpt>
      <trkpt lat="44.25832" lon="3.21969">
        <ele>848.02</ele>
        <time>2026-05-20T10:49:31Z</time>
      </trkpt>
      <trkpt lat="44.25833" lon="3.21971">
        <ele>848.98</ele>
        <time>2026-05-20T10:50:03Z</time>
      </trkpt>
      <trkpt lat="44.25834" lon="3.21965">
        <ele>849.46</ele>
        <time>2026-05-20T10:50:34Z</time>
      </trkpt>
      <trkpt lat="44.25833" lon="3.21963">
        <ele>849.46</ele>
        <time>2026-05-20T10:51:10Z</time>
      </trkpt>
      <trkpt lat="44.25834" lon="3.21969">
        <ele>849.46</ele>
        <time>2026-05-20T10:51:48Z</time>
      </trkpt>
      <trkpt lat="44.25834" lon="3.21965">
        <ele>849.46</ele>
        <time>2026-05-20T10:52:28Z</time>
      </trkpt>
      <trkpt lat="44.25835" lon="3.21968">
        <ele>849.46</ele>
        <time>2026-05-20T10:53:07Z</time>
      </trkpt>
      <trkpt lat="44.25835" lon="3.21967">
        <ele>849.46</ele>
        <time>2026-05-20T10:53:36Z</time>
      </trkpt>
      <trkpt lat="44.25834" lon="3.21967">
        <ele>848.98</ele>
        <time>2026-05-20T10:54:13Z</time>
      </trkpt>
      <trkpt lat="44.25834" lon="3.21963">
        <ele>849.46</ele>
        <time>2026-05-20T10:54:56Z</time>
      </trkpt>
      <trkpt lat="44.25833" lon="3.21966">
        <ele>849.46</ele>
        <time>2026-05-20T10:55:25Z</time>
      </trkpt>
      <trkpt lat="44.25833" lon="3.21965">
        <ele>849.46</ele>
        <time>2026-05-20T10:55:51Z</time>
      </trkpt>
      <trkpt lat="44.25832" lon="3.21966">
        <ele>848.5</ele>
        <time>2026-05-20T10:56:19Z</time>
      </trkpt>
      <trkpt lat="44.25829" lon="3.21967">
        <ele>848.5</ele>
        <time>2026-05-20T10:57:00Z</time>
      </trkpt>
      <trkpt lat="44.25834" lon="3.21966">
        <ele>848.5</ele>
        <time>2026-05-20T10:57:36Z</time>
      </trkpt>
      <trkpt lat="44.25834" lon="3.21969">
        <ele>848.98</ele>
        <time>2026-05-20T10:58:13Z</time>
      </trkpt>
      <trkpt lat="44.25829" lon="3.21964">
        <ele>850.42</ele>
        <time>2026-05-20T10:58:54Z</time>
      </trkpt>
      <trkpt lat="44.25829" lon="3.21968">
        <ele>850.42</ele>
        <time>2026-05-20T10:59:32Z</time>
      </trkpt>
      <trkpt lat="44.25832" lon="3.21969">
        <ele>850.42</ele>
        <time>2026-05-20T11:00:02Z</time>
      </trkpt>
      <trkpt lat="44.25829" lon="3.21962">
        <ele>850.9</ele>
        <time>2026-05-20T11:00:45Z</time>
      </trkpt>
      <trkpt lat="44.25832" lon="3.21962">
        <ele>850.9</ele>
        <time>2026-05-20T11:01:25Z</time>
      </trkpt>
      <trkpt lat="44.25835" lon="3.21964">
        <ele>851.38</ele>
        <time>2026-05-20T11:02:07Z</time>
      </trkpt>
      <trkpt lat="44.25829" lon="3.21971">
        <ele>851.38</ele>
        <time>2026-05-20T11:02:41Z</time>
      </trkpt>
      <trkpt lat="44.25828" lon="3.21969">
        <ele>851.38</ele>
        <time>2026-05-20T11:03:18Z</time>
      </trkpt>
      <trkpt lat="44.25828" lon="3.21967">
        <ele>849.94</ele>
        <time>2026-05-20T11:03:45Z</time>
      </trkpt>
      <trkpt lat="44.25832" lon="3.21966">
        <ele>849.94</ele>
        <time>2026-05-20T11:04:19Z</time>
      </trkpt>
      <trkpt lat="44.25832" lon="3.21968">
        <ele>849.94</ele>
        <time>2026-05-20T11:04:48Z</time>
      </trkpt>
      <trkpt lat="44.25832" lon="3.21968">
        <ele>849.94</ele>
        <time>2026-05-20T11:05:16Z</time>
      </trkpt>
      <trkpt lat="44.25833" lon="3.21964">
        <ele>849.94</ele>
        <time>2026-05-20T11:05:46Z</time>
      </trkpt>
      <trkpt lat="44.25833" lon="3.21965">
        <ele>849.94</ele>
        <time>2026-05-20T11:06:17Z</time>
      </trkpt>
      <trkpt lat="44.25832" lon="3.21972">
        <ele>849.94</ele>
        <time>2026-05-20T11:06:54Z</time>
      </trkpt>
      <trkpt lat="44.25832" lon="3.21968">
        <ele>849.94</ele>
        <time>2026-05-20T11:07:29Z</time>
      </trkpt>
      <trkpt lat="44.25834" lon="3.2197">
        <ele>849.94</ele>
        <time>2026-05-20T11:08:02Z</time>
      </trkpt>
      <trkpt lat="44.25834" lon="3.21969">
        <ele>850.9</ele>
        <time>2026-05-20T11:08:14Z</time>
      </trkpt>
      <trkpt lat="44.2583" lon="3.21966">
        <ele>850.9</ele>
        <time>2026-05-20T11:08:50Z</time>
      </trkpt>
      <trkpt lat="44.25833" lon="3.21964">
        <ele>850.9</ele>
        <time>2026-05-20T11:09:20Z</time>
      </trkpt>
      <trkpt lat="44.25832" lon="3.21972">
        <ele>850.42</ele>
        <time>2026-05-20T11:09:49Z</time>
      </trkpt>
      <trkpt lat="44.25835" lon="3.2197">
        <ele>851.38</ele>
        <time>2026-05-20T11:10:23Z</time>
      </trkpt>
      <trkpt lat="44.25831" lon="3.21974">
        <ele>851.38</ele>
        <time>2026-05-20T11:10:54Z</time>
      </trkpt>
      <trkpt lat="44.25833" lon="3.21965">
        <ele>851.87</ele>
        <time>2026-05-20T11:11:35Z</time>
      </trkpt>
      <trkpt lat="44.25829" lon="3.2197">
        <ele>851.87</ele>
        <time>2026-05-20T11:12:08Z</time>
      </trkpt>
      <trkpt lat="44.25829" lon="3.21967">
        <ele>851.87</ele>
        <time>2026-05-20T11:12:50Z</time>
      </trkpt>
      <trkpt lat="44.25828" lon="3.21969">
        <ele>851.87</ele>
        <time>2026-05-20T11:13:21Z</time>
      </trkpt>
      <trkpt lat="44.25831" lon="3.21962">
        <ele>851.87</ele>
        <time>2026-05-20T11:13:58Z</time>
      </trkpt>
      <trkpt lat="44.25832" lon="3.21962">
        <ele>851.87</ele>
        <time>2026-05-20T11:14:32Z</time>
      </trkpt>
      <trkpt lat="44.25831" lon="3.21965">
        <ele>850.9</ele>
        <time>2026-05-20T11:15:04Z</time>
      </trkpt>
      <trkpt lat="44.25828" lon="3.21966">
        <ele>850.9</ele>
        <time>2026-05-20T11:15:46Z</time>
      </trkpt>
      <trkpt lat="44.25829" lon="3.21961">
        <ele>850.42</ele>
        <time>2026-05-20T11:16:20Z</time>
      </trkpt>
      <trkpt lat="44.25831" lon="3.21963">
        <ele>850.42</ele>
        <time>2026-05-20T11:16:44Z</time>
      </trkpt>
      <trkpt lat="44.25833" lon="3.21963">
        <ele>850.42</ele>
        <time>2026-05-20T11:17:17Z</time>
      </trkpt>
      <trkpt lat="44.25836" lon="3.21965">
        <ele>850.42</ele>
        <time>2026-05-20T11:17:49Z</time>
      </trkpt>
      <trkpt lat="44.25837" lon="3.21967">
        <ele>849.94</ele>
        <time>2026-05-20T11:18:18Z</time>
      </trkpt>
      <trkpt lat="44.25837" lon="3.21966">
        <ele>849.94</ele>
        <time>2026-05-20T11:18:49Z</time>
      </trkpt>
      <trkpt lat="44.25836" lon="3.21968">
        <ele>851.38</ele>
        <time>2026-05-20T11:19:14Z</time>
      </trkpt>
      <trkpt lat="44.25836" lon="3.21967">
        <ele>851.38</ele>
        <time>2026-05-20T11:19:31Z</time>
      </trkpt>
      <trkpt lat="44.25837" lon="3.21973">
        <ele>851.38</ele>
        <time>2026-05-20T11:19:43Z</time>
      </trkpt>
      <trkpt lat="44.25837" lon="3.21973">
        <ele>851.38</ele>
        <time>2026-05-20T11:20:03Z</time>
      </trkpt>
      <trkpt lat="44.25837" lon="3.21974">
        <ele>851.87</ele>
        <time>2026-05-20T11:20:08Z</time>
      </trkpt>
      <trkpt lat="44.25837" lon="3.21974">
        <ele>849.94</ele>
        <time>2026-05-20T11:20:12Z</time>
      </trkpt>
      <trkpt lat="44.25837" lon="3.21973">
        <ele>846.1</ele>
        <time>2026-05-20T11:20:14Z</time>
      </trkpt>
      <trkpt lat="44.25837" lon="3.21973">
        <ele>855.71</ele>
        <time>2026-05-20T11:20:15Z</time>
      </trkpt>
      <trkpt lat="44.25837" lon="3.21973">
        <ele>852.35</ele>
        <time>2026-05-20T11:20:16Z</time>
      </trkpt>
      <trkpt lat="44.25837" lon="3.21972">
        <ele>851.38</ele>
        <time>2026-05-20T11:20:18Z</time>
      </trkpt>
      <trkpt lat="44.25837" lon="3.21973">
        <ele>847.54</ele>
        <time>2026-05-20T11:20:24Z</time>
      </trkpt>
      <trkpt lat="44.25837" lon="3.21973">
        <ele>857.63</ele>
        <time>2026-05-20T11:20:26Z</time>
      </trkpt>
      <trkpt lat="44.25837" lon="3.21973">
        <ele>852.35</ele>
        <time>2026-05-20T11:20:27Z</time>
      </trkpt>
      <trkpt lat="44.25839" lon="3.21965">
        <ele>850.42</ele>
        <time>2026-05-20T11:20:42Z</time>
      </trkpt>
      <trkpt lat="44.25839" lon="3.21972">
        <ele>850.42</ele>
        <time>2026-05-20T11:20:54Z</time>
      </trkpt>
      <trkpt lat="44.2584" lon="3.21965">
        <ele>849.94</ele>
        <time>2026-05-20T11:21:10Z</time>
      </trkpt>
      <trkpt lat="44.25843" lon="3.21951">
        <ele>849.94</ele>
        <time>2026-05-20T11:21:26Z</time>
      </trkpt>
      <trkpt lat="44.25852" lon="3.21942">
        <ele>849.46</ele>
        <time>2026-05-20T11:21:41Z</time>
      </trkpt>
      <trkpt lat="44.25865" lon="3.21938">
        <ele>848.98</ele>
        <time>2026-05-20T11:21:58Z</time>
      </trkpt>
      <trkpt lat="44.25868" lon="3.21929">
        <ele>850.9</ele>
        <time>2026-05-20T11:22:10Z</time>
      </trkpt>
      <trkpt lat="44.25881" lon="3.21919">
        <ele>850.42</ele>
        <time>2026-05-20T11:22:26Z</time>
      </trkpt>
      <trkpt lat="44.25896" lon="3.21906">
        <ele>849.94</ele>
        <time>2026-05-20T11:22:44Z</time>
      </trkpt>
      <trkpt lat="44.2591" lon="3.21893">
        <ele>849.94</ele>
        <time>2026-05-20T11:23:01Z</time>
      </trkpt>
      <trkpt lat="44.25922" lon="3.21885">
        <ele>851.38</ele>
        <time>2026-05-20T11:23:15Z</time>
      </trkpt>
      <trkpt lat="44.25936" lon="3.21877">
        <ele>851.87</ele>
        <time>2026-05-20T11:23:33Z</time>
      </trkpt>
      <trkpt lat="44.2595" lon="3.21871">
        <ele>853.31</ele>
        <time>2026-05-20T11:23:51Z</time>
      </trkpt>
      <trkpt lat="44.25963" lon="3.21866">
        <ele>854.27</ele>
        <time>2026-05-20T11:24:07Z</time>
      </trkpt>
      <trkpt lat="44.25975" lon="3.2186">
        <ele>854.75</ele>
        <time>2026-05-20T11:24:23Z</time>
      </trkpt>
      <trkpt lat="44.25986" lon="3.21854">
        <ele>855.71</ele>
        <time>2026-05-20T11:24:39Z</time>
      </trkpt>
      <trkpt lat="44.25997" lon="3.21842">
        <ele>856.67</ele>
        <time>2026-05-20T11:24:57Z</time>
      </trkpt>
      <trkpt lat="44.26005" lon="3.21835">
        <ele>857.15</ele>
        <time>2026-05-20T11:25:12Z</time>
      </trkpt>
      <trkpt lat="44.26012" lon="3.21828">
        <ele>857.63</ele>
        <time>2026-05-20T11:25:28Z</time>
      </trkpt>
      <trkpt lat="44.26023" lon="3.2182">
        <ele>859.56</ele>
        <time>2026-05-20T11:25:44Z</time>
      </trkpt>
      <trkpt lat="44.26035" lon="3.21811">
        <ele>860.52</ele>
        <time>2026-05-20T11:26:01Z</time>
      </trkpt>
      <trkpt lat="44.26042" lon="3.21797">
        <ele>861.48</ele>
        <time>2026-05-20T11:26:16Z</time>
      </trkpt>
      <trkpt lat="44.26051" lon="3.21782">
        <ele>860.04</ele>
        <time>2026-05-20T11:26:35Z</time>
      </trkpt>
      <trkpt lat="44.26056" lon="3.21783">
        <ele>859.08</ele>
        <time>2026-05-20T11:26:56Z</time>
      </trkpt>
      <trkpt lat="44.26058" lon="3.21774">
        <ele>860.52</ele>
        <time>2026-05-20T11:27:14Z</time>
      </trkpt>
      <trkpt lat="44.2606" lon="3.21771">
        <ele>860.52</ele>
        <time>2026-05-20T11:27:18Z</time>
      </trkpt>
      <trkpt lat="44.26064" lon="3.21766">
        <ele>860.52</ele>
        <time>2026-05-20T11:27:23Z</time>
      </trkpt>
      <trkpt lat="44.26083" lon="3.21755">
        <ele>861</ele>
        <time>2026-05-20T11:27:39Z</time>
      </trkpt>
      <trkpt lat="44.26087" lon="3.21754">
        <ele>853.31</ele>
        <time>2026-05-20T11:27:44Z</time>
      </trkpt>
      <trkpt lat="44.26088" lon="3.21754">
        <ele>861.48</ele>
        <time>2026-05-20T11:27:45Z</time>
      </trkpt>
      <trkpt lat="44.26088" lon="3.21753">
        <ele>866.77</ele>
        <time>2026-05-20T11:27:46Z</time>
      </trkpt>
      <trkpt lat="44.26089" lon="3.21753">
        <ele>862.92</ele>
        <time>2026-05-20T11:27:47Z</time>
      </trkpt>
      <trkpt lat="44.2609" lon="3.21752">
        <ele>861.96</ele>
        <time>2026-05-20T11:27:49Z</time>
      </trkpt>
      <trkpt lat="44.26095" lon="3.21747">
        <ele>863.88</ele>
        <time>2026-05-20T11:27:57Z</time>
      </trkpt>
      <trkpt lat="44.26096" lon="3.21746">
        <ele>862.92</ele>
        <time>2026-05-20T11:27:59Z</time>
      </trkpt>
      <trkpt lat="44.26103" lon="3.2174">
        <ele>862.92</ele>
        <time>2026-05-20T11:28:13Z</time>
      </trkpt>
      <trkpt lat="44.26104" lon="3.21739">
        <ele>864.36</ele>
        <time>2026-05-20T11:28:15Z</time>
      </trkpt>
      <trkpt lat="44.26105" lon="3.21738">
        <ele>862.92</ele>
        <time>2026-05-20T11:28:17Z</time>
      </trkpt>
      <trkpt lat="44.26105" lon="3.21737">
        <ele>866.77</ele>
        <time>2026-05-20T11:28:18Z</time>
      </trkpt>
      <trkpt lat="44.26106" lon="3.21736">
        <ele>865.8</ele>
        <time>2026-05-20T11:28:19Z</time>
      </trkpt>
      <trkpt lat="44.26107" lon="3.21735">
        <ele>865.32</ele>
        <time>2026-05-20T11:28:21Z</time>
      </trkpt>
      <trkpt lat="44.26115" lon="3.21727">
        <ele>866.29</ele>
        <time>2026-05-20T11:28:37Z</time>
      </trkpt>
      <trkpt lat="44.26122" lon="3.21722">
        <ele>867.73</ele>
        <time>2026-05-20T11:28:54Z</time>
      </trkpt>
      <trkpt lat="44.26133" lon="3.21724">
        <ele>870.13</ele>
        <time>2026-05-20T11:29:14Z</time>
      </trkpt>
      <trkpt lat="44.26142" lon="3.21729">
        <ele>870.61</ele>
        <time>2026-05-20T11:29:28Z</time>
      </trkpt>
      <trkpt lat="44.26142" lon="3.21732">
        <ele>870.13</ele>
        <time>2026-05-20T11:29:43Z</time>
      </trkpt>
      <trkpt lat="44.26143" lon="3.21736">
        <ele>870.13</ele>
        <time>2026-05-20T11:29:58Z</time>
      </trkpt>
      <trkpt lat="44.26143" lon="3.21739">
        <ele>870.13</ele>
        <time>2026-05-20T11:30:12Z</time>
      </trkpt>
      <trkpt lat="44.26143" lon="3.21738">
        <ele>869.17</ele>
        <time>2026-05-20T11:30:14Z</time>
      </trkpt>
      <trkpt lat="44.26144" lon="3.21738">
        <ele>869.17</ele>
        <time>2026-05-20T11:30:38Z</time>
      </trkpt>
      <trkpt lat="44.26144" lon="3.21735">
        <ele>868.69</ele>
        <time>2026-05-20T11:30:54Z</time>
      </trkpt>
      <trkpt lat="44.2614" lon="3.21727">
        <ele>870.13</ele>
        <time>2026-05-20T11:31:08Z</time>
      </trkpt>
      <trkpt lat="44.26147" lon="3.21715">
        <ele>871.57</ele>
        <time>2026-05-20T11:31:26Z</time>
      </trkpt>
      <trkpt lat="44.2615" lon="3.21714">
        <ele>873.01</ele>
        <time>2026-05-20T11:31:44Z</time>
      </trkpt>
      <trkpt lat="44.26154" lon="3.2171">
        <ele>873.5</ele>
        <time>2026-05-20T11:31:59Z</time>
      </trkpt>
      <trkpt lat="44.26157" lon="3.21706">
        <ele>874.94</ele>
        <time>2026-05-20T11:32:20Z</time>
      </trkpt>
      <trkpt lat="44.26162" lon="3.21703">
        <ele>875.9</ele>
        <time>2026-05-20T11:32:35Z</time>
      </trkpt>
      <trkpt lat="44.26162" lon="3.21705">
        <ele>876.38</ele>
        <time>2026-05-20T11:32:57Z</time>
      </trkpt>
      <trkpt lat="44.26171" lon="3.21697">
        <ele>878.3</ele>
        <time>2026-05-20T11:33:14Z</time>
      </trkpt>
      <trkpt lat="44.2618" lon="3.21693">
        <ele>879.74</ele>
        <time>2026-05-20T11:33:30Z</time>
      </trkpt>
      <trkpt lat="44.26186" lon="3.21695">
        <ele>880.22</ele>
        <time>2026-05-20T11:33:44Z</time>
      </trkpt>
      <trkpt lat="44.26196" lon="3.21698">
        <ele>881.19</ele>
        <time>2026-05-20T11:33:58Z</time>
      </trkpt>
      <trkpt lat="44.26197" lon="3.21698">
        <ele>884.55</ele>
        <time>2026-05-20T11:34:00Z</time>
      </trkpt>
      <trkpt lat="44.26197" lon="3.21698">
        <ele>882.63</ele>
        <time>2026-05-20T11:34:01Z</time>
      </trkpt>
      <trkpt lat="44.26198" lon="3.21698">
        <ele>882.15</ele>
        <time>2026-05-20T11:34:03Z</time>
      </trkpt>
      <trkpt lat="44.26202" lon="3.21697">
        <ele>882.15</ele>
        <time>2026-05-20T11:34:18Z</time>
      </trkpt>
      <trkpt lat="44.2621" lon="3.21695">
        <ele>883.11</ele>
        <time>2026-05-20T11:34:34Z</time>
      </trkpt>
      <trkpt lat="44.26217" lon="3.21703">
        <ele>884.07</ele>
        <time>2026-05-20T11:34:52Z</time>
      </trkpt>
      <trkpt lat="44.26225" lon="3.21698">
        <ele>884.07</ele>
        <time>2026-05-20T11:35:07Z</time>
      </trkpt>
      <trkpt lat="44.26234" lon="3.21689">
        <ele>885.99</ele>
        <time>2026-05-20T11:35:24Z</time>
      </trkpt>
      <trkpt lat="44.26235" lon="3.21688">
        <ele>886.47</ele>
        <time>2026-05-20T11:35:28Z</time>
      </trkpt>
      <trkpt lat="44.26243" lon="3.21694">
        <ele>885.03</ele>
        <time>2026-05-20T11:35:41Z</time>
      </trkpt>
      <trkpt lat="44.26244" lon="3.21697">
        <ele>884.55</ele>
        <time>2026-05-20T11:35:56Z</time>
      </trkpt>
      <trkpt lat="44.26245" lon="3.21697">
        <ele>884.07</ele>
        <time>2026-05-20T11:36:24Z</time>
      </trkpt>
      <trkpt lat="44.26245" lon="3.21698">
        <ele>884.55</ele>
        <time>2026-05-20T11:36:37Z</time>
      </trkpt>
      <trkpt lat="44.26248" lon="3.21695">
        <ele>885.51</ele>
        <time>2026-05-20T11:36:42Z</time>
      </trkpt>
      <trkpt lat="44.2625" lon="3.21692">
        <ele>885.03</ele>
        <time>2026-05-20T11:37:19Z</time>
      </trkpt>
      <trkpt lat="44.26245" lon="3.21695">
        <ele>885.03</ele>
        <time>2026-05-20T11:37:47Z</time>
      </trkpt>
      <trkpt lat="44.2624" lon="3.21696">
        <ele>885.03</ele>
        <time>2026-05-20T11:38:01Z</time>
      </trkpt>
      <trkpt lat="44.26238" lon="3.21691">
        <ele>885.99</ele>
        <time>2026-05-20T11:38:08Z</time>
      </trkpt>
      <trkpt lat="44.26242" lon="3.21682">
        <ele>887.91</ele>
        <time>2026-05-20T11:38:22Z</time>
      </trkpt>
      <trkpt lat="44.26249" lon="3.21669">
        <ele>889.36</ele>
        <time>2026-05-20T11:38:38Z</time>
      </trkpt>
      <trkpt lat="44.26263" lon="3.21662">
        <ele>890.32</ele>
        <time>2026-05-20T11:38:54Z</time>
      </trkpt>
      <trkpt lat="44.26273" lon="3.21656">
        <ele>891.76</ele>
        <time>2026-05-20T11:39:07Z</time>
      </trkpt>
      <trkpt lat="44.2628" lon="3.21662">
        <ele>892.24</ele>
        <time>2026-05-20T11:39:22Z</time>
      </trkpt>
      <trkpt lat="44.26293" lon="3.21659">
        <ele>890.8</ele>
        <time>2026-05-20T11:39:39Z</time>
      </trkpt>
      <trkpt lat="44.26305" lon="3.21656">
        <ele>892.24</ele>
        <time>2026-05-20T11:39:54Z</time>
      </trkpt>
      <trkpt lat="44.26316" lon="3.21655">
        <ele>890.8</ele>
        <time>2026-05-20T11:40:06Z</time>
      </trkpt>
      <trkpt lat="44.26329" lon="3.21655">
        <ele>890.32</ele>
        <time>2026-05-20T11:40:22Z</time>
      </trkpt>
      <trkpt lat="44.26343" lon="3.21647">
        <ele>888.88</ele>
        <time>2026-05-20T11:40:41Z</time>
      </trkpt>
      <trkpt lat="44.26357" lon="3.21643">
        <ele>887.91</ele>
        <time>2026-05-20T11:40:56Z</time>
      </trkpt>
      <trkpt lat="44.26371" lon="3.21636">
        <ele>887.91</ele>
        <time>2026-05-20T11:41:11Z</time>
      </trkpt>
      <trkpt lat="44.26387" lon="3.21629">
        <ele>886.47</ele>
        <time>2026-05-20T11:41:27Z</time>
      </trkpt>
      <trkpt lat="44.26401" lon="3.21623">
        <ele>885.03</ele>
        <time>2026-05-20T11:41:44Z</time>
      </trkpt>
      <trkpt lat="44.26407" lon="3.21626">
        <ele>885.03</ele>
        <time>2026-05-20T11:41:58Z</time>
      </trkpt>
      <trkpt lat="44.26417" lon="3.21613">
        <ele>884.55</ele>
        <time>2026-05-20T11:42:13Z</time>
      </trkpt>
      <trkpt lat="44.2642" lon="3.21603">
        <ele>883.59</ele>
        <time>2026-05-20T11:42:28Z</time>
      </trkpt>
      <trkpt lat="44.26419" lon="3.21604">
        <ele>883.11</ele>
        <time>2026-05-20T11:42:57Z</time>
      </trkpt>
      <trkpt lat="44.2642" lon="3.21603">
        <ele>884.07</ele>
        <time>2026-05-20T11:43:22Z</time>
      </trkpt>
      <trkpt lat="44.26422" lon="3.21595">
        <ele>884.07</ele>
        <time>2026-05-20T11:43:37Z</time>
      </trkpt>
      <trkpt lat="44.26427" lon="3.21576">
        <ele>882.63</ele>
        <time>2026-05-20T11:43:56Z</time>
      </trkpt>
      <trkpt lat="44.26438" lon="3.21562">
        <ele>880.71</ele>
        <time>2026-05-20T11:44:11Z</time>
      </trkpt>
      <trkpt lat="44.26439" lon="3.21561">
        <ele>880.22</ele>
        <time>2026-05-20T11:44:25Z</time>
      </trkpt>
      <trkpt lat="44.26441" lon="3.21558">
        <ele>879.74</ele>
        <time>2026-05-20T11:44:54Z</time>
      </trkpt>
      <trkpt lat="44.26447" lon="3.21545">
        <ele>877.34</ele>
        <time>2026-05-20T11:45:12Z</time>
      </trkpt>
      <trkpt lat="44.26455" lon="3.21533">
        <ele>875.42</ele>
        <time>2026-05-20T11:45:26Z</time>
      </trkpt>
      <trkpt lat="44.26469" lon="3.21526">
        <ele>872.53</ele>
        <time>2026-05-20T11:45:43Z</time>
      </trkpt>
      <trkpt lat="44.26477" lon="3.2152">
        <ele>870.61</ele>
        <time>2026-05-20T11:46:03Z</time>
      </trkpt>
      <trkpt lat="44.26486" lon="3.21515">
        <ele>867.25</ele>
        <time>2026-05-20T11:46:22Z</time>
      </trkpt>
      <trkpt lat="44.26497" lon="3.21511">
        <ele>866.29</ele>
        <time>2026-05-20T11:46:37Z</time>
      </trkpt>
      <trkpt lat="44.26513" lon="3.21513">
        <ele>863.4</ele>
        <time>2026-05-20T11:46:54Z</time>
      </trkpt>
      <trkpt lat="44.26516" lon="3.21509">
        <ele>862.44</ele>
        <time>2026-05-20T11:47:09Z</time>
      </trkpt>
      <trkpt lat="44.26518" lon="3.21496">
        <ele>861.48</ele>
        <time>2026-05-20T11:47:23Z</time>
      </trkpt>
      <trkpt lat="44.26518" lon="3.2149">
        <ele>862.44</ele>
        <time>2026-05-20T11:47:32Z</time>
      </trkpt>
      <trkpt lat="44.2652" lon="3.21489">
        <ele>858.11</ele>
        <time>2026-05-20T11:47:49Z</time>
      </trkpt>
      <trkpt lat="44.2652" lon="3.21489">
        <ele>861</ele>
        <time>2026-05-20T11:47:50Z</time>
      </trkpt>
      <trkpt lat="44.26521" lon="3.2149">
        <ele>861.96</ele>
        <time>2026-05-20T11:47:52Z</time>
      </trkpt>
      <trkpt lat="44.26522" lon="3.21491">
        <ele>853.79</ele>
        <time>2026-05-20T11:47:55Z</time>
      </trkpt>
      <trkpt lat="44.26522" lon="3.21492">
        <ele>860.04</ele>
        <time>2026-05-20T11:47:56Z</time>
      </trkpt>
      <trkpt lat="44.26526" lon="3.21493">
        <ele>861.96</ele>
        <time>2026-05-20T11:48:03Z</time>
      </trkpt>
      <trkpt lat="44.26528" lon="3.21493">
        <ele>861</ele>
        <time>2026-05-20T11:48:07Z</time>
      </trkpt>
      <trkpt lat="44.2653" lon="3.21493">
        <ele>860.52</ele>
        <time>2026-05-20T11:48:17Z</time>
      </trkpt>
      <trkpt lat="44.2653" lon="3.21494">
        <ele>862.44</ele>
        <time>2026-05-20T11:48:31Z</time>
      </trkpt>
      <trkpt lat="44.26522" lon="3.21496">
        <ele>861.96</ele>
        <time>2026-05-20T11:48:58Z</time>
      </trkpt>
      <trkpt lat="44.26525" lon="3.21496">
        <ele>861.96</ele>
        <time>2026-05-20T11:49:33Z</time>
      </trkpt>
      <trkpt lat="44.26525" lon="3.21495">
        <ele>864.84</ele>
        <time>2026-05-20T11:49:34Z</time>
      </trkpt>
      <trkpt lat="44.26526" lon="3.21494">
        <ele>861.96</ele>
        <time>2026-05-20T11:49:36Z</time>
      </trkpt>
      <trkpt lat="44.26526" lon="3.21493">
        <ele>861.96</ele>
        <time>2026-05-20T11:49:37Z</time>
      </trkpt>
      <trkpt lat="44.26527" lon="3.21484">
        <ele>861.96</ele>
        <time>2026-05-20T11:49:57Z</time>
      </trkpt>
      <trkpt lat="44.26537" lon="3.21484">
        <ele>859.08</ele>
        <time>2026-05-20T11:50:14Z</time>
      </trkpt>
      <trkpt lat="44.26546" lon="3.21478">
        <ele>857.63</ele>
        <time>2026-05-20T11:50:26Z</time>
      </trkpt>
      <trkpt lat="44.26562" lon="3.21479">
        <ele>857.63</ele>
        <time>2026-05-20T11:50:41Z</time>
      </trkpt>
      <trkpt lat="44.26564" lon="3.2148">
        <ele>856.19</ele>
        <time>2026-05-20T11:50:44Z</time>
      </trkpt>
      <trkpt lat="44.2657" lon="3.21483">
        <ele>855.23</ele>
        <time>2026-05-20T11:50:52Z</time>
      </trkpt>
      <trkpt lat="44.26574" lon="3.21479">
        <ele>856.67</ele>
        <time>2026-05-20T11:50:59Z</time>
      </trkpt>
      <trkpt lat="44.26576" lon="3.21477">
        <ele>855.23</ele>
        <time>2026-05-20T11:51:02Z</time>
      </trkpt>
      <trkpt lat="44.26584" lon="3.21469">
        <ele>852.83</ele>
        <time>2026-05-20T11:51:19Z</time>
      </trkpt>
      <trkpt lat="44.26593" lon="3.21465">
        <ele>851.38</ele>
        <time>2026-05-20T11:51:33Z</time>
      </trkpt>
      <trkpt lat="44.26606" lon="3.21459">
        <ele>848.98</ele>
        <time>2026-05-20T11:51:48Z</time>
      </trkpt>
      <trkpt lat="44.26616" lon="3.21459">
        <ele>847.06</ele>
        <time>2026-05-20T11:52:03Z</time>
      </trkpt>
      <trkpt lat="44.26626" lon="3.21454">
        <ele>844.18</ele>
        <time>2026-05-20T11:52:19Z</time>
      </trkpt>
      <trkpt lat="44.26641" lon="3.21448">
        <ele>842.25</ele>
        <time>2026-05-20T11:52:38Z</time>
      </trkpt>
      <trkpt lat="44.26655" lon="3.21453">
        <ele>840.33</ele>
        <time>2026-05-20T11:52:56Z</time>
      </trkpt>
      <trkpt lat="44.26668" lon="3.2146">
        <ele>839.85</ele>
        <time>2026-05-20T11:53:12Z</time>
      </trkpt>
      <trkpt lat="44.26682" lon="3.21463">
        <ele>840.81</ele>
        <time>2026-05-20T11:53:29Z</time>
      </trkpt>
      <trkpt lat="44.26698" lon="3.21471">
        <ele>842.73</ele>
        <time>2026-05-20T11:53:45Z</time>
      </trkpt>
      <trkpt lat="44.26704" lon="3.21476">
        <ele>844.18</ele>
        <time>2026-05-20T11:54:03Z</time>
      </trkpt>
      <trkpt lat="44.26713" lon="3.2148">
        <ele>845.62</ele>
        <time>2026-05-20T11:54:18Z</time>
      </trkpt>
      <trkpt lat="44.26726" lon="3.21491">
        <ele>845.14</ele>
        <time>2026-05-20T11:54:34Z</time>
      </trkpt>
      <trkpt lat="44.26734" lon="3.21493">
        <ele>842.25</ele>
        <time>2026-05-20T11:54:50Z</time>
      </trkpt>
      <trkpt lat="44.26739" lon="3.21492">
        <ele>840.81</ele>
        <time>2026-05-20T11:55:10Z</time>
      </trkpt>
      <trkpt lat="44.26747" lon="3.21485">
        <ele>838.41</ele>
        <time>2026-05-20T11:55:28Z</time>
      </trkpt>
      <trkpt lat="44.26757" lon="3.21476">
        <ele>834.56</ele>
        <time>2026-05-20T11:55:46Z</time>
      </trkpt>
      <trkpt lat="44.26766" lon="3.21471">
        <ele>832.16</ele>
        <time>2026-05-20T11:56:03Z</time>
      </trkpt>
      <trkpt lat="44.26767" lon="3.21474">
        <ele>832.64</ele>
        <time>2026-05-20T11:56:10Z</time>
      </trkpt>
      <trkpt lat="44.26768" lon="3.21475">
        <ele>831.68</ele>
        <time>2026-05-20T11:56:12Z</time>
      </trkpt>
      <trkpt lat="44.26769" lon="3.21475">
        <ele>832.16</ele>
        <time>2026-05-20T11:56:20Z</time>
      </trkpt>
      <trkpt lat="44.26769" lon="3.21486">
        <ele>830.72</ele>
        <time>2026-05-20T11:56:38Z</time>
      </trkpt>
      <trkpt lat="44.26772" lon="3.2151">
        <ele>831.2</ele>
        <time>2026-05-20T11:56:54Z</time>
      </trkpt>
      <trkpt lat="44.26771" lon="3.21528">
        <ele>832.16</ele>
        <time>2026-05-20T11:57:09Z</time>
      </trkpt>
      <trkpt lat="44.26773" lon="3.2155">
        <ele>833.6</ele>
        <time>2026-05-20T11:57:22Z</time>
      </trkpt>
      <trkpt lat="44.26775" lon="3.21569">
        <ele>835.04</ele>
        <time>2026-05-20T11:57:37Z</time>
      </trkpt>
      <trkpt lat="44.26778" lon="3.21578">
        <ele>837.93</ele>
        <time>2026-05-20T11:57:50Z</time>
      </trkpt>
      <trkpt lat="44.26782" lon="3.21582">
        <ele>838.41</ele>
        <time>2026-05-20T11:58:09Z</time>
      </trkpt>
      <trkpt lat="44.26785" lon="3.21576">
        <ele>840.33</ele>
        <time>2026-05-20T11:58:29Z</time>
      </trkpt>
      <trkpt lat="44.26795" lon="3.21587">
        <ele>842.25</ele>
        <time>2026-05-20T11:58:49Z</time>
      </trkpt>
      <trkpt lat="44.268" lon="3.21593">
        <ele>843.69</ele>
        <time>2026-05-20T11:59:05Z</time>
      </trkpt>
      <trkpt lat="44.26807" lon="3.21605">
        <ele>845.14</ele>
        <time>2026-05-20T11:59:24Z</time>
      </trkpt>
      <trkpt lat="44.26814" lon="3.21613">
        <ele>846.58</ele>
        <time>2026-05-20T11:59:41Z</time>
      </trkpt>
      <trkpt lat="44.26819" lon="3.2161">
        <ele>848.5</ele>
        <time>2026-05-20T12:00:03Z</time>
      </trkpt>
      <trkpt lat="44.26829" lon="3.21599">
        <ele>850.42</ele>
        <time>2026-05-20T12:00:24Z</time>
      </trkpt>
      <trkpt lat="44.26839" lon="3.21587">
        <ele>851.87</ele>
        <time>2026-05-20T12:00:40Z</time>
      </trkpt>
      <trkpt lat="44.26851" lon="3.21579">
        <ele>852.83</ele>
        <time>2026-05-20T12:00:54Z</time>
      </trkpt>
      <trkpt lat="44.26863" lon="3.21564">
        <ele>853.31</ele>
        <time>2026-05-20T12:01:13Z</time>
      </trkpt>
      <trkpt lat="44.26876" lon="3.21554">
        <ele>854.75</ele>
        <time>2026-05-20T12:01:30Z</time>
      </trkpt>
      <trkpt lat="44.26889" lon="3.21543">
        <ele>855.71</ele>
        <time>2026-05-20T12:01:47Z</time>
      </trkpt>
      <trkpt lat="44.26887" lon="3.21545">
        <ele>856.19</ele>
        <time>2026-05-20T12:02:15Z</time>
      </trkpt>
      <trkpt lat="44.26889" lon="3.21548">
        <ele>856.67</ele>
        <time>2026-05-20T12:02:39Z</time>
      </trkpt>
      <trkpt lat="44.26897" lon="3.2155">
        <ele>857.15</ele>
        <time>2026-05-20T12:02:49Z</time>
      </trkpt>
      <trkpt lat="44.26902" lon="3.2155">
        <ele>855.71</ele>
        <time>2026-05-20T12:02:55Z</time>
      </trkpt>
      <trkpt lat="44.26905" lon="3.21549">
        <ele>859.08</ele>
        <time>2026-05-20T12:02:59Z</time>
      </trkpt>
      <trkpt lat="44.26912" lon="3.2155">
        <ele>858.59</ele>
        <time>2026-05-20T12:03:10Z</time>
      </trkpt>
      <trkpt lat="44.26919" lon="3.21546">
        <ele>860.52</ele>
        <time>2026-05-20T12:03:24Z</time>
      </trkpt>
      <trkpt lat="44.26929" lon="3.21541">
        <ele>862.92</ele>
        <time>2026-05-20T12:03:39Z</time>
      </trkpt>
      <trkpt lat="44.26941" lon="3.21536">
        <ele>863.88</ele>
        <time>2026-05-20T12:03:56Z</time>
      </trkpt>
      <trkpt lat="44.26946" lon="3.21527">
        <ele>864.36</ele>
        <time>2026-05-20T12:04:05Z</time>
      </trkpt>
      <trkpt lat="44.26948" lon="3.21516">
        <ele>861.96</ele>
        <time>2026-05-20T12:04:15Z</time>
      </trkpt>
      <trkpt lat="44.26956" lon="3.21507">
        <ele>861.48</ele>
        <time>2026-05-20T12:04:23Z</time>
      </trkpt>
      <trkpt lat="44.26957" lon="3.21504">
        <ele>857.15</ele>
        <time>2026-05-20T12:04:25Z</time>
      </trkpt>
      <trkpt lat="44.26958" lon="3.21503">
        <ele>867.25</ele>
        <time>2026-05-20T12:04:26Z</time>
      </trkpt>
      <trkpt lat="44.26959" lon="3.21501">
        <ele>863.88</ele>
        <time>2026-05-20T12:04:27Z</time>
      </trkpt>
      <trkpt lat="44.2696" lon="3.21499">
        <ele>861</ele>
        <time>2026-05-20T12:04:30Z</time>
      </trkpt>
      <trkpt lat="44.26968" lon="3.21487">
        <ele>859.56</ele>
        <time>2026-05-20T12:04:44Z</time>
      </trkpt>
      <trkpt lat="44.26978" lon="3.21473">
        <ele>859.56</ele>
        <time>2026-05-20T12:05:00Z</time>
      </trkpt>
      <trkpt lat="44.2698" lon="3.2147">
        <ele>863.4</ele>
        <time>2026-05-20T12:05:06Z</time>
      </trkpt>
      <trkpt lat="44.2698" lon="3.21469">
        <ele>858.59</ele>
        <time>2026-05-20T12:05:15Z</time>
      </trkpt>
      <trkpt lat="44.2698" lon="3.21469">
        <ele>861.96</ele>
        <time>2026-05-20T12:05:16Z</time>
      </trkpt>
      <trkpt lat="44.2698" lon="3.21468">
        <ele>861.96</ele>
        <time>2026-05-20T12:05:17Z</time>
      </trkpt>
      <trkpt lat="44.26977" lon="3.21468">
        <ele>861</ele>
        <time>2026-05-20T12:05:45Z</time>
      </trkpt>
      <trkpt lat="44.26985" lon="3.2147">
        <ele>862.92</ele>
        <time>2026-05-20T12:06:01Z</time>
      </trkpt>
      <trkpt lat="44.26993" lon="3.21473">
        <ele>864.84</ele>
        <time>2026-05-20T12:06:19Z</time>
      </trkpt>
      <trkpt lat="44.26997" lon="3.21478">
        <ele>867.25</ele>
        <time>2026-05-20T12:06:36Z</time>
      </trkpt>
      <trkpt lat="44.26999" lon="3.21484">
        <ele>868.69</ele>
        <time>2026-05-20T12:06:53Z</time>
      </trkpt>
      <trkpt lat="44.27001" lon="3.21485">
        <ele>872.05</ele>
        <time>2026-05-20T12:07:00Z</time>
      </trkpt>
      <trkpt lat="44.26999" lon="3.21489">
        <ele>871.57</ele>
        <time>2026-05-20T12:07:14Z</time>
      </trkpt>
      <trkpt lat="44.26999" lon="3.21487">
        <ele>871.57</ele>
        <time>2026-05-20T12:07:36Z</time>
      </trkpt>
      <trkpt lat="44.27006" lon="3.21486">
        <ele>873.5</ele>
        <time>2026-05-20T12:07:51Z</time>
      </trkpt>
      <trkpt lat="44.27011" lon="3.21487">
        <ele>875.42</ele>
        <time>2026-05-20T12:08:08Z</time>
      </trkpt>
      <trkpt lat="44.27017" lon="3.21491">
        <ele>877.82</ele>
        <time>2026-05-20T12:08:23Z</time>
      </trkpt>
      <trkpt lat="44.27021" lon="3.21497">
        <ele>880.71</ele>
        <time>2026-05-20T12:08:36Z</time>
      </trkpt>
      <trkpt lat="44.27025" lon="3.21498">
        <ele>882.15</ele>
        <time>2026-05-20T12:08:51Z</time>
      </trkpt>
      <trkpt lat="44.27033" lon="3.21497">
        <ele>884.07</ele>
        <time>2026-05-20T12:09:07Z</time>
      </trkpt>
      <trkpt lat="44.2704" lon="3.21512">
        <ele>886.47</ele>
        <time>2026-05-20T12:09:24Z</time>
      </trkpt>
      <trkpt lat="44.27046" lon="3.21525">
        <ele>887.91</ele>
        <time>2026-05-20T12:09:39Z</time>
      </trkpt>
      <trkpt lat="44.2705" lon="3.21537">
        <ele>888.88</ele>
        <time>2026-05-20T12:09:53Z</time>
      </trkpt>
      <trkpt lat="44.27044" lon="3.21547">
        <ele>888.88</ele>
        <time>2026-05-20T12:10:07Z</time>
      </trkpt>
      <trkpt lat="44.27042" lon="3.21549">
        <ele>888.88</ele>
        <time>2026-05-20T12:10:10Z</time>
      </trkpt>
      <trkpt lat="44.27033" lon="3.21559">
        <ele>886.47</ele>
        <time>2026-05-20T12:10:17Z</time>
      </trkpt>
      <trkpt lat="44.2703" lon="3.21572">
        <ele>884.55</ele>
        <time>2026-05-20T12:10:27Z</time>
      </trkpt>
      <trkpt lat="44.27029" lon="3.21573">
        <ele>884.55</ele>
        <time>2026-05-20T12:10:39Z</time>
      </trkpt>
      <trkpt lat="44.27028" lon="3.21573">
        <ele>884.55</ele>
        <time>2026-05-20T12:10:56Z</time>
      </trkpt>
      <trkpt lat="44.27032" lon="3.21577">
        <ele>884.07</ele>
        <time>2026-05-20T12:11:09Z</time>
      </trkpt>
      <trkpt lat="44.27032" lon="3.21578">
        <ele>885.51</ele>
        <time>2026-05-20T12:11:17Z</time>
      </trkpt>
      <trkpt lat="44.27031" lon="3.21577">
        <ele>884.07</ele>
        <time>2026-05-20T12:11:25Z</time>
      </trkpt>
      <trkpt lat="44.27031" lon="3.21577">
        <ele>883.11</ele>
        <time>2026-05-20T12:11:43Z</time>
      </trkpt>
      <trkpt lat="44.27032" lon="3.21578">
        <ele>882.63</ele>
        <time>2026-05-20T12:12:18Z</time>
      </trkpt>
      <trkpt lat="44.27032" lon="3.21577">
        <ele>882.63</ele>
        <time>2026-05-20T12:12:59Z</time>
      </trkpt>
      <trkpt lat="44.2703" lon="3.21574">
        <ele>883.59</ele>
        <time>2026-05-20T12:13:21Z</time>
      </trkpt>
      <trkpt lat="44.27032" lon="3.21575">
        <ele>883.59</ele>
        <time>2026-05-20T12:13:58Z</time>
      </trkpt>
      <trkpt lat="44.27031" lon="3.21575">
        <ele>882.63</ele>
        <time>2026-05-20T12:14:37Z</time>
      </trkpt>
      <trkpt lat="44.27032" lon="3.21576">
        <ele>882.63</ele>
        <time>2026-05-20T12:15:20Z</time>
      </trkpt>
      <trkpt lat="44.27031" lon="3.21576">
        <ele>882.15</ele>
        <time>2026-05-20T12:15:57Z</time>
      </trkpt>
      <trkpt lat="44.27032" lon="3.21576">
        <ele>882.15</ele>
        <time>2026-05-20T12:16:41Z</time>
      </trkpt>
      <trkpt lat="44.27032" lon="3.21576">
        <ele>881.67</ele>
        <time>2026-05-20T12:17:12Z</time>
      </trkpt>
      <trkpt lat="44.27033" lon="3.21577">
        <ele>881.67</ele>
        <time>2026-05-20T12:17:53Z</time>
      </trkpt>
      <trkpt lat="44.27031" lon="3.21577">
        <ele>881.67</ele>
        <time>2026-05-20T12:18:31Z</time>
      </trkpt>
      <trkpt lat="44.27031" lon="3.21578">
        <ele>882.63</ele>
        <time>2026-05-20T12:19:09Z</time>
      </trkpt>
      <trkpt lat="44.27032" lon="3.21577">
        <ele>882.15</ele>
        <time>2026-05-20T12:19:53Z</time>
      </trkpt>
      <trkpt lat="44.2703" lon="3.21577">
        <ele>882.15</ele>
        <time>2026-05-20T12:20:31Z</time>
      </trkpt>
      <trkpt lat="44.2703" lon="3.21577">
        <ele>883.59</ele>
        <time>2026-05-20T12:20:39Z</time>
      </trkpt>
      <trkpt lat="44.27031" lon="3.21574">
        <ele>883.11</ele>
        <time>2026-05-20T12:21:17Z</time>
      </trkpt>
      <trkpt lat="44.27031" lon="3.21576">
        <ele>883.11</ele>
        <time>2026-05-20T12:22:07Z</time>
      </trkpt>
      <trkpt lat="44.27031" lon="3.21577">
        <ele>883.11</ele>
        <time>2026-05-20T12:22:52Z</time>
      </trkpt>
      <trkpt lat="44.27032" lon="3.21577">
        <ele>883.11</ele>
        <time>2026-05-20T12:23:35Z</time>
      </trkpt>
      <trkpt lat="44.27032" lon="3.21579">
        <ele>883.11</ele>
        <time>2026-05-20T12:24:18Z</time>
      </trkpt>
      <trkpt lat="44.2703" lon="3.21575">
        <ele>883.11</ele>
        <time>2026-05-20T12:24:57Z</time>
      </trkpt>
      <trkpt lat="44.27031" lon="3.21576">
        <ele>881.67</ele>
        <time>2026-05-20T12:25:36Z</time>
      </trkpt>
      <trkpt lat="44.27033" lon="3.21577">
        <ele>881.67</ele>
        <time>2026-05-20T12:26:16Z</time>
      </trkpt>
      <trkpt lat="44.27032" lon="3.21577">
        <ele>881.67</ele>
        <time>2026-05-20T12:26:56Z</time>
      </trkpt>
      <trkpt lat="44.2703" lon="3.21574">
        <ele>881.67</ele>
        <time>2026-05-20T12:27:43Z</time>
      </trkpt>
      <trkpt lat="44.27031" lon="3.21576">
        <ele>883.11</ele>
        <time>2026-05-20T12:28:23Z</time>
      </trkpt>
      <trkpt lat="44.27031" lon="3.21578">
        <ele>882.63</ele>
        <time>2026-05-20T12:28:32Z</time>
      </trkpt>
      <trkpt lat="44.2703" lon="3.21577">
        <ele>883.59</ele>
        <time>2026-05-20T12:28:42Z</time>
      </trkpt>
      <trkpt lat="44.27027" lon="3.21572">
        <ele>884.07</ele>
        <time>2026-05-20T12:28:59Z</time>
      </trkpt>
      <trkpt lat="44.27029" lon="3.21564">
        <ele>884.55</ele>
        <time>2026-05-20T12:29:14Z</time>
      </trkpt>
      <trkpt lat="44.27038" lon="3.21545">
        <ele>886.95</ele>
        <time>2026-05-20T12:29:32Z</time>
      </trkpt>
      <trkpt lat="44.27039" lon="3.21544">
        <ele>887.43</ele>
        <time>2026-05-20T12:29:48Z</time>
      </trkpt>
      <trkpt lat="44.27044" lon="3.21531">
        <ele>887.43</ele>
        <time>2026-05-20T12:30:00Z</time>
      </trkpt>
      <trkpt lat="44.2705" lon="3.21528">
        <ele>888.4</ele>
        <time>2026-05-20T12:30:06Z</time>
      </trkpt>
      <trkpt lat="44.27056" lon="3.21523">
        <ele>888.4</ele>
        <time>2026-05-20T12:30:15Z</time>
      </trkpt>
      <trkpt lat="44.27058" lon="3.2152">
        <ele>888.4</ele>
        <time>2026-05-20T12:30:18Z</time>
      </trkpt>
      <trkpt lat="44.27067" lon="3.21513">
        <ele>889.84</ele>
        <time>2026-05-20T12:30:31Z</time>
      </trkpt>
      <trkpt lat="44.2707" lon="3.21512">
        <ele>890.32</ele>
        <time>2026-05-20T12:30:35Z</time>
      </trkpt>
      <trkpt lat="44.27082" lon="3.21502">
        <ele>891.76</ele>
        <time>2026-05-20T12:30:50Z</time>
      </trkpt>
      <trkpt lat="44.27084" lon="3.21496">
        <ele>891.76</ele>
        <time>2026-05-20T12:30:54Z</time>
      </trkpt>
      <trkpt lat="44.27084" lon="3.21487">
        <ele>891.76</ele>
        <time>2026-05-20T12:31:02Z</time>
      </trkpt>
      <trkpt lat="44.27083" lon="3.21476">
        <ele>891.76</ele>
        <time>2026-05-20T12:31:10Z</time>
      </trkpt>
      <trkpt lat="44.2708" lon="3.21456">
        <ele>890.32</ele>
        <time>2026-05-20T12:31:23Z</time>
      </trkpt>
      <trkpt lat="44.2708" lon="3.21455">
        <ele>890.32</ele>
        <time>2026-05-20T12:31:24Z</time>
      </trkpt>
      <trkpt lat="44.27079" lon="3.21452">
        <ele>889.84</ele>
        <time>2026-05-20T12:31:26Z</time>
      </trkpt>
      <trkpt lat="44.27074" lon="3.21432">
        <ele>888.4</ele>
        <time>2026-05-20T12:31:42Z</time>
      </trkpt>
      <trkpt lat="44.27063" lon="3.21413">
        <ele>887.91</ele>
        <time>2026-05-20T12:31:55Z</time>
      </trkpt>
      <trkpt lat="44.27052" lon="3.21405">
        <ele>886.47</ele>
        <time>2026-05-20T12:32:08Z</time>
      </trkpt>
      <trkpt lat="44.27034" lon="3.21396">
        <ele>885.51</ele>
        <time>2026-05-20T12:32:26Z</time>
      </trkpt>
      <trkpt lat="44.27033" lon="3.21388">
        <ele>884.55</ele>
        <time>2026-05-20T12:32:38Z</time>
      </trkpt>
      <trkpt lat="44.27038" lon="3.21381">
        <ele>884.55</ele>
        <time>2026-05-20T12:32:50Z</time>
      </trkpt>
      <trkpt lat="44.27039" lon="3.21377">
        <ele>885.99</ele>
        <time>2026-05-20T12:32:56Z</time>
      </trkpt>
      <trkpt lat="44.2704" lon="3.21375">
        <ele>883.59</ele>
        <time>2026-05-20T12:32:57Z</time>
      </trkpt>
      <trkpt lat="44.2704" lon="3.21374">
        <ele>886.95</ele>
        <time>2026-05-20T12:32:58Z</time>
      </trkpt>
      <trkpt lat="44.27041" lon="3.21373">
        <ele>886.95</ele>
        <time>2026-05-20T12:32:59Z</time>
      </trkpt>
      <trkpt lat="44.27041" lon="3.21372">
        <ele>885.51</ele>
        <time>2026-05-20T12:33:01Z</time>
      </trkpt>
      <trkpt lat="44.27048" lon="3.21368">
        <ele>885.03</ele>
        <time>2026-05-20T12:33:16Z</time>
      </trkpt>
      <trkpt lat="44.27049" lon="3.21355">
        <ele>885.99</ele>
        <time>2026-05-20T12:33:31Z</time>
      </trkpt>
      <trkpt lat="44.27051" lon="3.21352">
        <ele>884.55</ele>
        <time>2026-05-20T12:33:35Z</time>
      </trkpt>
      <trkpt lat="44.27057" lon="3.21354">
        <ele>883.11</ele>
        <time>2026-05-20T12:33:49Z</time>
      </trkpt>
      <trkpt lat="44.27063" lon="3.21354">
        <ele>884.07</ele>
        <time>2026-05-20T12:33:56Z</time>
      </trkpt>
      <trkpt lat="44.27076" lon="3.21349">
        <ele>884.07</ele>
        <time>2026-05-20T12:34:11Z</time>
      </trkpt>
      <trkpt lat="44.27088" lon="3.21347">
        <ele>881.19</ele>
        <time>2026-05-20T12:34:25Z</time>
      </trkpt>
      <trkpt lat="44.27094" lon="3.21344">
        <ele>880.22</ele>
        <time>2026-05-20T12:34:35Z</time>
      </trkpt>
      <trkpt lat="44.27107" lon="3.21342">
        <ele>878.3</ele>
        <time>2026-05-20T12:34:51Z</time>
      </trkpt>
      <trkpt lat="44.27123" lon="3.21343">
        <ele>877.34</ele>
        <time>2026-05-20T12:35:06Z</time>
      </trkpt>
      <trkpt lat="44.27138" lon="3.21344">
        <ele>876.38</ele>
        <time>2026-05-20T12:35:20Z</time>
      </trkpt>
      <trkpt lat="44.27155" lon="3.21347">
        <ele>876.38</ele>
        <time>2026-05-20T12:35:34Z</time>
      </trkpt>
      <trkpt lat="44.27167" lon="3.21352">
        <ele>875.42</ele>
        <time>2026-05-20T12:35:46Z</time>
      </trkpt>
      <trkpt lat="44.27178" lon="3.21347">
        <ele>875.42</ele>
        <time>2026-05-20T12:35:57Z</time>
      </trkpt>
      <trkpt lat="44.27192" lon="3.21345">
        <ele>874.46</ele>
        <time>2026-05-20T12:36:11Z</time>
      </trkpt>
      <trkpt lat="44.27199" lon="3.21345">
        <ele>874.46</ele>
        <time>2026-05-20T12:36:17Z</time>
      </trkpt>
      <trkpt lat="44.27205" lon="3.21347">
        <ele>874.46</ele>
        <time>2026-05-20T12:36:22Z</time>
      </trkpt>
      <trkpt lat="44.27207" lon="3.21348">
        <ele>874.46</ele>
        <time>2026-05-20T12:36:24Z</time>
      </trkpt>
      <trkpt lat="44.27208" lon="3.21349">
        <ele>874.46</ele>
        <time>2026-05-20T12:36:25Z</time>
      </trkpt>
      <trkpt lat="44.2721" lon="3.2135">
        <ele>874.46</ele>
        <time>2026-05-20T12:36:26Z</time>
      </trkpt>
      <trkpt lat="44.27216" lon="3.21353">
        <ele>873.98</ele>
        <time>2026-05-20T12:36:33Z</time>
      </trkpt>
      <trkpt lat="44.27217" lon="3.21353">
        <ele>873.98</ele>
        <time>2026-05-20T12:36:34Z</time>
      </trkpt>
      <trkpt lat="44.27222" lon="3.21353">
        <ele>875.42</ele>
        <time>2026-05-20T12:36:40Z</time>
      </trkpt>
      <trkpt lat="44.27233" lon="3.21346">
        <ele>875.42</ele>
        <time>2026-05-20T12:36:55Z</time>
      </trkpt>
      <trkpt lat="44.27239" lon="3.21343">
        <ele>873.98</ele>
        <time>2026-05-20T12:37:02Z</time>
      </trkpt>
      <trkpt lat="44.2725" lon="3.21343">
        <ele>873.5</ele>
        <time>2026-05-20T12:37:15Z</time>
      </trkpt>
      <trkpt lat="44.27253" lon="3.21344">
        <ele>873.5</ele>
        <time>2026-05-20T12:37:18Z</time>
      </trkpt>
      <trkpt lat="44.27254" lon="3.21345">
        <ele>873.5</ele>
        <time>2026-05-20T12:37:19Z</time>
      </trkpt>
      <trkpt lat="44.27255" lon="3.21346">
        <ele>873.5</ele>
        <time>2026-05-20T12:37:20Z</time>
      </trkpt>
      <trkpt lat="44.27259" lon="3.21341">
        <ele>872.53</ele>
        <time>2026-05-20T12:37:32Z</time>
      </trkpt>
      <trkpt lat="44.27266" lon="3.21342">
        <ele>871.09</ele>
        <time>2026-05-20T12:37:40Z</time>
        <extensions>
          <visugpx:TrkExtension xmlns:visugpx="https://www.visugpx.com/editgpx/">
            <visugpx:node>1</visugpx:node>
            </visugpx:TrkExtension>
        </extensions>
      </trkpt>
    </trkseg>
  </trk>
</gpx>